<?xml version="1.0" encoding="UTF-8" standalone="no" ?>
<gpx xmlns="http://www.topografix.com/GPX/1/1" xmlns:xsi="http://www.w3.org/2001/XMLSchema-instance" xsi:schemaLocation="http://www.topografix.com/GPX/1/1 http://www.topografix.com/GPX/1/1/gpx.xsd" version="1.1" creator="VisuGPX - https://www.visugpx.com">
  <metadata>
    <name>Forêt du Cruvelier</name>
    <desc><![CDATA[Rando facile même si cela monte bien mais lentement. La descente est un peu plus rude.]]></desc>
  </metadata>
  <trk>
    <name><![CDATA[ACTIVE LOG 001]]></name>
    <trkseg>
      <trkpt lat="43.28355" lon="5.62615">
        <ele>118.37939453125</ele>
        <time>2018-12-29T13:41:23Z</time>
      </trkpt>
      <trkpt lat="43.28364" lon="5.62603">
        <ele>115.49560546875</ele>
        <time>2018-12-29T13:41:47Z</time>
      </trkpt>
      <trkpt lat="43.28391" lon="5.62583">
        <ele>110.20825195312</ele>
        <time>2018-12-29T13:42:20Z</time>
      </trkpt>
      <trkpt lat="43.28422" lon="5.62565">
        <ele>111.16955566406</ele>
        <time>2018-12-29T13:42:50Z</time>
      </trkpt>
      <trkpt lat="43.28449" lon="5.62549">
        <ele>112.61157226562</ele>
        <time>2018-12-29T13:43:15Z</time>
      </trkpt>
      <trkpt lat="43.28472" lon="5.62537">
        <ele>114.5341796875</ele>
        <time>2018-12-29T13:43:33Z</time>
      </trkpt>
      <trkpt lat="43.28501" lon="5.62522">
        <ele>115.97619628906</ele>
        <time>2018-12-29T13:43:57Z</time>
      </trkpt>
      <trkpt lat="43.28532" lon="5.6251">
        <ele>117.41821289062</ele>
        <time>2018-12-29T13:44:21Z</time>
      </trkpt>
      <trkpt lat="43.2856" lon="5.625">
        <ele>118.37939453125</ele>
        <time>2018-12-29T13:44:43Z</time>
      </trkpt>
      <trkpt lat="43.28591" lon="5.62488">
        <ele>122.22473144531</ele>
        <time>2018-12-29T13:45:07Z</time>
      </trkpt>
      <trkpt lat="43.28603" lon="5.62484">
        <ele>122.22473144531</ele>
        <time>2018-12-29T13:45:20Z</time>
      </trkpt>
      <trkpt lat="43.28625" lon="5.62479">
        <ele>120.30212402344</ele>
        <time>2018-12-29T13:45:36Z</time>
      </trkpt>
      <trkpt lat="43.28648" lon="5.62474">
        <ele>123.66674804688</ele>
        <time>2018-12-29T13:45:54Z</time>
      </trkpt>
      <trkpt lat="43.28671" lon="5.6247">
        <ele>124.62805175781</ele>
        <time>2018-12-29T13:46:12Z</time>
      </trkpt>
      <trkpt lat="43.28687" lon="5.62469">
        <ele>126.06994628906</ele>
        <time>2018-12-29T13:46:23Z</time>
      </trkpt>
      <trkpt lat="43.28715" lon="5.6247">
        <ele>127.51196289062</ele>
        <time>2018-12-29T13:46:45Z</time>
      </trkpt>
      <trkpt lat="43.28739" lon="5.62473">
        <ele>124.62805175781</ele>
        <time>2018-12-29T13:47:04Z</time>
      </trkpt>
      <trkpt lat="43.28764" lon="5.62475">
        <ele>124.14733886719</ele>
        <time>2018-12-29T13:47:25Z</time>
      </trkpt>
      <trkpt lat="43.28765" lon="5.62476">
        <ele>124.62805175781</ele>
        <time>2018-12-29T13:47:26Z</time>
      </trkpt>
      <trkpt lat="43.2876" lon="5.62495">
        <ele>124.14733886719</ele>
        <time>2018-12-29T13:47:41Z</time>
      </trkpt>
      <trkpt lat="43.28752" lon="5.62525">
        <ele>122.70544433594</ele>
        <time>2018-12-29T13:48:02Z</time>
      </trkpt>
      <trkpt lat="43.28748" lon="5.62539">
        <ele>123.66674804688</ele>
        <time>2018-12-29T13:48:12Z</time>
      </trkpt>
      <trkpt lat="43.28745" lon="5.62547">
        <ele>124.62805175781</ele>
        <time>2018-12-29T13:48:18Z</time>
      </trkpt>
      <trkpt lat="43.28737" lon="5.62581">
        <ele>124.62805175781</ele>
        <time>2018-12-29T13:48:37Z</time>
      </trkpt>
      <trkpt lat="43.28733" lon="5.6259">
        <ele>127.03137207031</ele>
        <time>2018-12-29T13:48:51Z</time>
      </trkpt>
      <trkpt lat="43.28734" lon="5.62592">
        <ele>127.03137207031</ele>
        <time>2018-12-29T13:48:55Z</time>
      </trkpt>
      <trkpt lat="43.28738" lon="5.62595">
        <ele>127.03137207031</ele>
        <time>2018-12-29T13:48:59Z</time>
      </trkpt>
      <trkpt lat="43.28743" lon="5.62607">
        <ele>129.43469238281</ele>
        <time>2018-12-29T13:49:14Z</time>
      </trkpt>
      <trkpt lat="43.28746" lon="5.6261">
        <ele>129.91528320312</ele>
        <time>2018-12-29T13:49:18Z</time>
      </trkpt>
      <trkpt lat="43.28749" lon="5.62626">
        <ele>134.2412109375</ele>
        <time>2018-12-29T13:49:31Z</time>
      </trkpt>
      <trkpt lat="43.28744" lon="5.62628">
        <ele>135.68310546875</ele>
        <time>2018-12-29T13:49:38Z</time>
      </trkpt>
      <trkpt lat="43.28737" lon="5.62626">
        <ele>136.64465332031</ele>
        <time>2018-12-29T13:49:44Z</time>
      </trkpt>
      <trkpt lat="43.28733" lon="5.62626">
        <ele>137.12524414062</ele>
        <time>2018-12-29T13:49:47Z</time>
      </trkpt>
      <trkpt lat="43.28716" lon="5.62627">
        <ele>136.64465332031</ele>
        <time>2018-12-29T13:50:04Z</time>
      </trkpt>
      <trkpt lat="43.287" lon="5.62635">
        <ele>136.16394042969</ele>
        <time>2018-12-29T13:50:18Z</time>
      </trkpt>
      <trkpt lat="43.28684" lon="5.62651">
        <ele>138.08654785156</ele>
        <time>2018-12-29T13:50:36Z</time>
      </trkpt>
      <trkpt lat="43.28679" lon="5.62662">
        <ele>139.0478515625</ele>
        <time>2018-12-29T13:50:44Z</time>
      </trkpt>
      <trkpt lat="43.28675" lon="5.62682">
        <ele>141.45104980469</ele>
        <time>2018-12-29T13:51:00Z</time>
      </trkpt>
      <trkpt lat="43.28666" lon="5.62703">
        <ele>142.41247558594</ele>
        <time>2018-12-29T13:51:12Z</time>
      </trkpt>
      <trkpt lat="43.28659" lon="5.6271">
        <ele>142.41247558594</ele>
        <time>2018-12-29T13:51:18Z</time>
      </trkpt>
      <trkpt lat="43.28656" lon="5.62728">
        <ele>140.97045898438</ele>
        <time>2018-12-29T13:51:31Z</time>
      </trkpt>
      <trkpt lat="43.28655" lon="5.62731">
        <ele>140.97045898438</ele>
        <time>2018-12-29T13:51:33Z</time>
      </trkpt>
      <trkpt lat="43.28653" lon="5.6274">
        <ele>139.0478515625</ele>
        <time>2018-12-29T13:51:37Z</time>
      </trkpt>
      <trkpt lat="43.28648" lon="5.6276">
        <ele>138.56726074219</ele>
        <time>2018-12-29T13:51:51Z</time>
      </trkpt>
      <trkpt lat="43.28645" lon="5.62791">
        <ele>137.60583496094</ele>
        <time>2018-12-29T13:52:13Z</time>
      </trkpt>
      <trkpt lat="43.28645" lon="5.62813">
        <ele>137.60583496094</ele>
        <time>2018-12-29T13:52:31Z</time>
      </trkpt>
      <trkpt lat="43.28645" lon="5.62834">
        <ele>138.56726074219</ele>
        <time>2018-12-29T13:52:45Z</time>
      </trkpt>
      <trkpt lat="43.28646" lon="5.62838">
        <ele>138.56726074219</ele>
        <time>2018-12-29T13:52:48Z</time>
      </trkpt>
      <trkpt lat="43.28645" lon="5.6285">
        <ele>138.08654785156</ele>
        <time>2018-12-29T13:53:03Z</time>
      </trkpt>
      <trkpt lat="43.28645" lon="5.6286">
        <ele>138.08654785156</ele>
        <time>2018-12-29T13:53:09Z</time>
      </trkpt>
      <trkpt lat="43.28646" lon="5.6288">
        <ele>137.60583496094</ele>
        <time>2018-12-29T13:53:21Z</time>
      </trkpt>
      <trkpt lat="43.28646" lon="5.62881">
        <ele>137.60583496094</ele>
        <time>2018-12-29T13:53:22Z</time>
      </trkpt>
      <trkpt lat="43.28645" lon="5.62889">
        <ele>137.60583496094</ele>
        <time>2018-12-29T13:53:27Z</time>
      </trkpt>
      <trkpt lat="43.28647" lon="5.629">
        <ele>138.56726074219</ele>
        <time>2018-12-29T13:53:33Z</time>
      </trkpt>
      <trkpt lat="43.28648" lon="5.62903">
        <ele>138.56726074219</ele>
        <time>2018-12-29T13:53:35Z</time>
      </trkpt>
      <trkpt lat="43.28646" lon="5.62915">
        <ele>140.97045898438</ele>
        <time>2018-12-29T13:53:48Z</time>
      </trkpt>
      <trkpt lat="43.28647" lon="5.62934">
        <ele>142.89306640625</ele>
        <time>2018-12-29T13:54:04Z</time>
      </trkpt>
      <trkpt lat="43.28648" lon="5.62953">
        <ele>145.29638671875</ele>
        <time>2018-12-29T13:54:16Z</time>
      </trkpt>
      <trkpt lat="43.28648" lon="5.62961">
        <ele>144.33520507812</ele>
        <time>2018-12-29T13:54:21Z</time>
      </trkpt>
      <trkpt lat="43.28644" lon="5.62977">
        <ele>142.89306640625</ele>
        <time>2018-12-29T13:54:34Z</time>
      </trkpt>
      <trkpt lat="43.28646" lon="5.62975">
        <ele>142.89306640625</ele>
        <time>2018-12-29T13:54:52Z</time>
      </trkpt>
      <trkpt lat="43.28657" lon="5.62979">
        <ele>142.89306640625</ele>
        <time>2018-12-29T13:55:56Z</time>
      </trkpt>
      <trkpt lat="43.28665" lon="5.62988">
        <ele>142.41247558594</ele>
        <time>2018-12-29T13:57:39Z</time>
      </trkpt>
      <trkpt lat="43.28669" lon="5.62989">
        <ele>144.33520507812</ele>
        <time>2018-12-29T13:58:00Z</time>
      </trkpt>
      <trkpt lat="43.2868" lon="5.62997">
        <ele>149.1416015625</ele>
        <time>2018-12-29T13:58:37Z</time>
      </trkpt>
      <trkpt lat="43.28681" lon="5.62994">
        <ele>151.544921875</ele>
        <time>2018-12-29T13:59:35Z</time>
      </trkpt>
      <trkpt lat="43.28679" lon="5.62995">
        <ele>152.98693847656</ele>
        <time>2018-12-29T14:00:57Z</time>
      </trkpt>
      <trkpt lat="43.28687" lon="5.62997">
        <ele>155.39025878906</ele>
        <time>2018-12-29T14:01:19Z</time>
      </trkpt>
      <trkpt lat="43.28696" lon="5.63001">
        <ele>157.79357910156</ele>
        <time>2018-12-29T14:01:41Z</time>
      </trkpt>
      <trkpt lat="43.287" lon="5.6301">
        <ele>159.71618652344</ele>
        <time>2018-12-29T14:01:56Z</time>
      </trkpt>
      <trkpt lat="43.28702" lon="5.63016">
        <ele>161.158203125</ele>
        <time>2018-12-29T14:02:11Z</time>
      </trkpt>
      <trkpt lat="43.28709" lon="5.63019">
        <ele>164.52270507812</ele>
        <time>2018-12-29T14:03:01Z</time>
      </trkpt>
      <trkpt lat="43.28716" lon="5.63022">
        <ele>173.6552734375</ele>
        <time>2018-12-29T14:04:33Z</time>
      </trkpt>
      <trkpt lat="43.28719" lon="5.63025">
        <ele>175.09729003906</ele>
        <time>2018-12-29T14:04:43Z</time>
      </trkpt>
      <trkpt lat="43.28727" lon="5.63027">
        <ele>177.02001953125</ele>
        <time>2018-12-29T14:04:55Z</time>
      </trkpt>
      <trkpt lat="43.28727" lon="5.63027">
        <ele>177.02001953125</ele>
        <time>2018-12-29T14:04:57Z</time>
      </trkpt>
      <trkpt lat="43.28729" lon="5.63029">
        <ele>177.50061035156</ele>
        <time>2018-12-29T14:04:59Z</time>
      </trkpt>
      <trkpt lat="43.28728" lon="5.63032">
        <ele>180.38452148438</ele>
        <time>2018-12-29T14:05:12Z</time>
      </trkpt>
      <trkpt lat="43.28729" lon="5.63032">
        <ele>179.90380859375</ele>
        <time>2018-12-29T14:06:39Z</time>
      </trkpt>
      <trkpt lat="43.28739" lon="5.63027">
        <ele>182.78784179688</ele>
        <time>2018-12-29T14:06:48Z</time>
      </trkpt>
      <trkpt lat="43.28748" lon="5.63029">
        <ele>189.03637695312</ele>
        <time>2018-12-29T14:07:00Z</time>
      </trkpt>
      <trkpt lat="43.28752" lon="5.63028">
        <ele>189.51696777344</ele>
        <time>2018-12-29T14:07:03Z</time>
      </trkpt>
      <trkpt lat="43.28759" lon="5.63031">
        <ele>192.40112304688</ele>
        <time>2018-12-29T14:07:10Z</time>
      </trkpt>
      <trkpt lat="43.28761" lon="5.63034">
        <ele>194.32373046875</ele>
        <time>2018-12-29T14:07:14Z</time>
      </trkpt>
      <trkpt lat="43.28765" lon="5.63039">
        <ele>194.32373046875</ele>
        <time>2018-12-29T14:07:17Z</time>
      </trkpt>
      <trkpt lat="43.28767" lon="5.63063">
        <ele>195.765625</ele>
        <time>2018-12-29T14:07:33Z</time>
      </trkpt>
      <trkpt lat="43.28766" lon="5.63069">
        <ele>195.28491210938</ele>
        <time>2018-12-29T14:07:36Z</time>
      </trkpt>
      <trkpt lat="43.28768" lon="5.63074">
        <ele>194.32373046875</ele>
        <time>2018-12-29T14:07:39Z</time>
      </trkpt>
      <trkpt lat="43.28768" lon="5.63076">
        <ele>193.84301757812</ele>
        <time>2018-12-29T14:07:41Z</time>
      </trkpt>
      <trkpt lat="43.28773" lon="5.63084">
        <ele>192.88171386719</ele>
        <time>2018-12-29T14:07:46Z</time>
      </trkpt>
      <trkpt lat="43.28774" lon="5.63086">
        <ele>193.3623046875</ele>
        <time>2018-12-29T14:07:48Z</time>
      </trkpt>
      <trkpt lat="43.28775" lon="5.63095">
        <ele>196.24633789062</ele>
        <time>2018-12-29T14:08:02Z</time>
      </trkpt>
      <trkpt lat="43.28775" lon="5.63103">
        <ele>196.72692871094</ele>
        <time>2018-12-29T14:08:16Z</time>
      </trkpt>
      <trkpt lat="43.28773" lon="5.63112">
        <ele>198.1689453125</ele>
        <time>2018-12-29T14:08:32Z</time>
      </trkpt>
      <trkpt lat="43.28769" lon="5.63125">
        <ele>198.64953613281</ele>
        <time>2018-12-29T14:08:41Z</time>
      </trkpt>
      <trkpt lat="43.28766" lon="5.6313">
        <ele>199.13012695312</ele>
        <time>2018-12-29T14:08:45Z</time>
      </trkpt>
      <trkpt lat="43.28754" lon="5.63145">
        <ele>197.68823242188</ele>
        <time>2018-12-29T14:08:59Z</time>
      </trkpt>
      <trkpt lat="43.28745" lon="5.63164">
        <ele>198.1689453125</ele>
        <time>2018-12-29T14:09:14Z</time>
      </trkpt>
      <trkpt lat="43.28737" lon="5.63191">
        <ele>201.53356933594</ele>
        <time>2018-12-29T14:09:36Z</time>
      </trkpt>
      <trkpt lat="43.28736" lon="5.6321">
        <ele>205.85949707031</ele>
        <time>2018-12-29T14:09:54Z</time>
      </trkpt>
      <trkpt lat="43.28727" lon="5.63225">
        <ele>207.78210449219</ele>
        <time>2018-12-29T14:10:09Z</time>
      </trkpt>
      <trkpt lat="43.2873" lon="5.63243">
        <ele>209.22412109375</ele>
        <time>2018-12-29T14:10:25Z</time>
      </trkpt>
      <trkpt lat="43.28726" lon="5.63245">
        <ele>209.70483398438</ele>
        <time>2018-12-29T14:10:33Z</time>
      </trkpt>
      <trkpt lat="43.28712" lon="5.63265">
        <ele>212.10803222656</ele>
        <time>2018-12-29T14:10:52Z</time>
      </trkpt>
      <trkpt lat="43.28695" lon="5.63284">
        <ele>213.55004882812</ele>
        <time>2018-12-29T14:11:11Z</time>
      </trkpt>
      <trkpt lat="43.28693" lon="5.63286">
        <ele>214.03063964844</ele>
        <time>2018-12-29T14:11:23Z</time>
      </trkpt>
      <trkpt lat="43.28678" lon="5.63297">
        <ele>215.47265625</ele>
        <time>2018-12-29T14:11:37Z</time>
      </trkpt>
      <trkpt lat="43.28662" lon="5.63308">
        <ele>220.27917480469</ele>
        <time>2018-12-29T14:11:54Z</time>
      </trkpt>
      <trkpt lat="43.28653" lon="5.6332">
        <ele>223.16320800781</ele>
        <time>2018-12-29T14:12:10Z</time>
      </trkpt>
      <trkpt lat="43.28632" lon="5.63353">
        <ele>226.52783203125</ele>
        <time>2018-12-29T14:12:37Z</time>
      </trkpt>
      <trkpt lat="43.28632" lon="5.63354">
        <ele>227.00854492188</ele>
        <time>2018-12-29T14:12:38Z</time>
      </trkpt>
      <trkpt lat="43.28628" lon="5.63369">
        <ele>228.93115234375</ele>
        <time>2018-12-29T14:12:50Z</time>
      </trkpt>
      <trkpt lat="43.28627" lon="5.63374">
        <ele>229.89233398438</ele>
        <time>2018-12-29T14:12:54Z</time>
      </trkpt>
      <trkpt lat="43.28626" lon="5.63379">
        <ele>231.33435058594</ele>
        <time>2018-12-29T14:12:59Z</time>
      </trkpt>
      <trkpt lat="43.28628" lon="5.63391">
        <ele>233.25708007812</ele>
        <time>2018-12-29T14:13:12Z</time>
      </trkpt>
      <trkpt lat="43.28628" lon="5.6341">
        <ele>235.1796875</ele>
        <time>2018-12-29T14:13:28Z</time>
      </trkpt>
      <trkpt lat="43.28633" lon="5.63412">
        <ele>233.73767089844</ele>
        <time>2018-12-29T14:13:57Z</time>
      </trkpt>
      <trkpt lat="43.28633" lon="5.63413">
        <ele>233.73767089844</ele>
        <time>2018-12-29T14:13:58Z</time>
      </trkpt>
      <trkpt lat="43.28621" lon="5.63428">
        <ele>233.73767089844</ele>
        <time>2018-12-29T14:14:08Z</time>
      </trkpt>
      <trkpt lat="43.28613" lon="5.63444">
        <ele>233.73767089844</ele>
        <time>2018-12-29T14:14:22Z</time>
      </trkpt>
      <trkpt lat="43.28609" lon="5.63449">
        <ele>234.69909667969</ele>
        <time>2018-12-29T14:14:30Z</time>
      </trkpt>
      <trkpt lat="43.28593" lon="5.63457">
        <ele>238.06359863281</ele>
        <time>2018-12-29T14:14:48Z</time>
      </trkpt>
      <trkpt lat="43.2857" lon="5.63464">
        <ele>244.31225585938</ele>
        <time>2018-12-29T14:15:10Z</time>
      </trkpt>
      <trkpt lat="43.28561" lon="5.63478">
        <ele>244.31225585938</ele>
        <time>2018-12-29T14:15:29Z</time>
      </trkpt>
      <trkpt lat="43.28551" lon="5.63486">
        <ele>243.83154296875</ele>
        <time>2018-12-29T14:15:38Z</time>
      </trkpt>
      <trkpt lat="43.28551" lon="5.63491">
        <ele>244.79284667969</ele>
        <time>2018-12-29T14:15:46Z</time>
      </trkpt>
      <trkpt lat="43.28547" lon="5.6352">
        <ele>245.2734375</ele>
        <time>2018-12-29T14:16:05Z</time>
      </trkpt>
      <trkpt lat="43.28549" lon="5.63539">
        <ele>246.23486328125</ele>
        <time>2018-12-29T14:16:20Z</time>
      </trkpt>
      <trkpt lat="43.28547" lon="5.63549">
        <ele>246.23486328125</ele>
        <time>2018-12-29T14:16:24Z</time>
      </trkpt>
      <trkpt lat="43.28551" lon="5.63567">
        <ele>245.75415039062</ele>
        <time>2018-12-29T14:16:37Z</time>
      </trkpt>
      <trkpt lat="43.28551" lon="5.63575">
        <ele>245.2734375</ele>
        <time>2018-12-29T14:16:44Z</time>
      </trkpt>
      <trkpt lat="43.28551" lon="5.63579">
        <ele>244.79284667969</ele>
        <time>2018-12-29T14:16:46Z</time>
      </trkpt>
      <trkpt lat="43.28557" lon="5.63597">
        <ele>244.31225585938</ele>
        <time>2018-12-29T14:17:02Z</time>
      </trkpt>
      <trkpt lat="43.28558" lon="5.63598">
        <ele>244.31225585938</ele>
        <time>2018-12-29T14:17:04Z</time>
      </trkpt>
      <trkpt lat="43.28557" lon="5.63608">
        <ele>243.83154296875</ele>
        <time>2018-12-29T14:17:10Z</time>
      </trkpt>
      <trkpt lat="43.28556" lon="5.63614">
        <ele>244.31225585938</ele>
        <time>2018-12-29T14:17:14Z</time>
      </trkpt>
      <trkpt lat="43.28555" lon="5.63621">
        <ele>242.87023925781</ele>
        <time>2018-12-29T14:17:19Z</time>
      </trkpt>
      <trkpt lat="43.28555" lon="5.63636">
        <ele>239.98620605469</ele>
        <time>2018-12-29T14:17:30Z</time>
      </trkpt>
      <trkpt lat="43.28553" lon="5.63655">
        <ele>239.02490234375</ele>
        <time>2018-12-29T14:17:40Z</time>
      </trkpt>
      <trkpt lat="43.28554" lon="5.63667">
        <ele>240.94763183594</ele>
        <time>2018-12-29T14:17:49Z</time>
      </trkpt>
      <trkpt lat="43.28553" lon="5.63677">
        <ele>241.42822265625</ele>
        <time>2018-12-29T14:17:55Z</time>
      </trkpt>
      <trkpt lat="43.28552" lon="5.63682">
        <ele>242.3896484375</ele>
        <time>2018-12-29T14:17:59Z</time>
      </trkpt>
      <trkpt lat="43.28552" lon="5.63702">
        <ele>241.42822265625</ele>
        <time>2018-12-29T14:18:16Z</time>
      </trkpt>
      <trkpt lat="43.28551" lon="5.63721">
        <ele>240.46704101562</ele>
        <time>2018-12-29T14:18:31Z</time>
      </trkpt>
      <trkpt lat="43.2855" lon="5.63736">
        <ele>238.06359863281</ele>
        <time>2018-12-29T14:18:42Z</time>
      </trkpt>
      <trkpt lat="43.28549" lon="5.63742">
        <ele>237.10229492188</ele>
        <time>2018-12-29T14:18:46Z</time>
      </trkpt>
      <trkpt lat="43.28546" lon="5.6376">
        <ele>236.14099121094</ele>
        <time>2018-12-29T14:18:59Z</time>
      </trkpt>
      <trkpt lat="43.28545" lon="5.63765">
        <ele>234.21838378906</ele>
        <time>2018-12-29T14:19:03Z</time>
      </trkpt>
      <trkpt lat="43.28541" lon="5.63776">
        <ele>232.77648925781</ele>
        <time>2018-12-29T14:19:11Z</time>
      </trkpt>
      <trkpt lat="43.28536" lon="5.63785">
        <ele>230.373046875</ele>
        <time>2018-12-29T14:19:17Z</time>
      </trkpt>
      <trkpt lat="43.28535" lon="5.63788">
        <ele>229.41174316406</ele>
        <time>2018-12-29T14:19:19Z</time>
      </trkpt>
      <trkpt lat="43.28524" lon="5.63809">
        <ele>227.00854492188</ele>
        <time>2018-12-29T14:19:38Z</time>
      </trkpt>
      <trkpt lat="43.28516" lon="5.63816">
        <ele>227.00854492188</ele>
        <time>2018-12-29T14:19:45Z</time>
      </trkpt>
      <trkpt lat="43.28515" lon="5.63823">
        <ele>227.00854492188</ele>
        <time>2018-12-29T14:19:50Z</time>
      </trkpt>
      <trkpt lat="43.28512" lon="5.63826">
        <ele>227.00854492188</ele>
        <time>2018-12-29T14:19:53Z</time>
      </trkpt>
      <trkpt lat="43.28509" lon="5.63829">
        <ele>226.52783203125</ele>
        <time>2018-12-29T14:19:57Z</time>
      </trkpt>
      <trkpt lat="43.28501" lon="5.63833">
        <ele>228.45043945312</ele>
        <time>2018-12-29T14:20:11Z</time>
      </trkpt>
      <trkpt lat="43.28483" lon="5.63836">
        <ele>229.89233398438</ele>
        <time>2018-12-29T14:20:28Z</time>
      </trkpt>
      <trkpt lat="43.28465" lon="5.63841">
        <ele>230.373046875</ele>
        <time>2018-12-29T14:20:43Z</time>
      </trkpt>
      <trkpt lat="43.28459" lon="5.6385">
        <ele>230.373046875</ele>
        <time>2018-12-29T14:20:50Z</time>
      </trkpt>
      <trkpt lat="43.28466" lon="5.63872">
        <ele>228.93115234375</ele>
        <time>2018-12-29T14:21:09Z</time>
      </trkpt>
      <trkpt lat="43.2847" lon="5.63875">
        <ele>229.89233398438</ele>
        <time>2018-12-29T14:21:12Z</time>
      </trkpt>
      <trkpt lat="43.28482" lon="5.63893">
        <ele>228.93115234375</ele>
        <time>2018-12-29T14:21:31Z</time>
      </trkpt>
      <trkpt lat="43.28483" lon="5.63894">
        <ele>228.93115234375</ele>
        <time>2018-12-29T14:21:32Z</time>
      </trkpt>
      <trkpt lat="43.28494" lon="5.63913">
        <ele>232.29577636719</ele>
        <time>2018-12-29T14:21:47Z</time>
      </trkpt>
      <trkpt lat="43.28502" lon="5.63934">
        <ele>237.10229492188</ele>
        <time>2018-12-29T14:22:02Z</time>
      </trkpt>
      <trkpt lat="43.28506" lon="5.63954">
        <ele>241.42822265625</ele>
        <time>2018-12-29T14:22:15Z</time>
      </trkpt>
      <trkpt lat="43.28512" lon="5.63974">
        <ele>248.15759277344</ele>
        <time>2018-12-29T14:22:30Z</time>
      </trkpt>
      <trkpt lat="43.28519" lon="5.63991">
        <ele>252.96398925781</ele>
        <time>2018-12-29T14:22:41Z</time>
      </trkpt>
      <trkpt lat="43.28525" lon="5.63994">
        <ele>254.88659667969</ele>
        <time>2018-12-29T14:22:48Z</time>
      </trkpt>
      <trkpt lat="43.28528" lon="5.63988">
        <ele>244.79284667969</ele>
        <time>2018-12-29T14:23:03Z</time>
      </trkpt>
      <trkpt lat="43.28532" lon="5.63989">
        <ele>242.3896484375</ele>
        <time>2018-12-29T14:23:20Z</time>
      </trkpt>
      <trkpt lat="43.28548" lon="5.63977">
        <ele>241.90893554688</ele>
        <time>2018-12-29T14:23:38Z</time>
      </trkpt>
      <trkpt lat="43.28581" lon="5.63965">
        <ele>240.94763183594</ele>
        <time>2018-12-29T14:24:04Z</time>
      </trkpt>
      <trkpt lat="43.28599" lon="5.63951">
        <ele>240.94763183594</ele>
        <time>2018-12-29T14:24:26Z</time>
      </trkpt>
      <trkpt lat="43.28609" lon="5.63948">
        <ele>241.90893554688</ele>
        <time>2018-12-29T14:24:35Z</time>
      </trkpt>
      <trkpt lat="43.28625" lon="5.63948">
        <ele>240.94763183594</ele>
        <time>2018-12-29T14:24:50Z</time>
      </trkpt>
      <trkpt lat="43.28647" lon="5.63944">
        <ele>246.23486328125</ele>
        <time>2018-12-29T14:25:15Z</time>
      </trkpt>
      <trkpt lat="43.28662" lon="5.6395">
        <ele>251.04138183594</ele>
        <time>2018-12-29T14:25:29Z</time>
      </trkpt>
      <trkpt lat="43.28675" lon="5.63959">
        <ele>248.15759277344</ele>
        <time>2018-12-29T14:25:42Z</time>
      </trkpt>
      <trkpt lat="43.2868" lon="5.63962">
        <ele>247.19604492188</ele>
        <time>2018-12-29T14:25:46Z</time>
      </trkpt>
      <trkpt lat="43.28686" lon="5.63984">
        <ele>241.90893554688</ele>
        <time>2018-12-29T14:26:02Z</time>
      </trkpt>
      <trkpt lat="43.28691" lon="5.64001">
        <ele>239.98620605469</ele>
        <time>2018-12-29T14:26:15Z</time>
      </trkpt>
      <trkpt lat="43.28694" lon="5.64005">
        <ele>239.50549316406</ele>
        <time>2018-12-29T14:26:18Z</time>
      </trkpt>
      <trkpt lat="43.28698" lon="5.6401">
        <ele>239.50549316406</ele>
        <time>2018-12-29T14:26:22Z</time>
      </trkpt>
      <trkpt lat="43.28706" lon="5.64039">
        <ele>243.83154296875</ele>
        <time>2018-12-29T14:26:42Z</time>
      </trkpt>
      <trkpt lat="43.2871" lon="5.64055">
        <ele>247.19604492188</ele>
        <time>2018-12-29T14:26:53Z</time>
      </trkpt>
      <trkpt lat="43.28713" lon="5.64062">
        <ele>248.63818359375</ele>
        <time>2018-12-29T14:26:58Z</time>
      </trkpt>
      <trkpt lat="43.28714" lon="5.64089">
        <ele>247.6767578125</ele>
        <time>2018-12-29T14:27:17Z</time>
      </trkpt>
      <trkpt lat="43.28711" lon="5.64097">
        <ele>247.6767578125</ele>
        <time>2018-12-29T14:27:24Z</time>
      </trkpt>
      <trkpt lat="43.28712" lon="5.64116">
        <ele>250.56079101562</ele>
        <time>2018-12-29T14:27:41Z</time>
      </trkpt>
      <trkpt lat="43.28714" lon="5.64116">
        <ele>251.52209472656</ele>
        <time>2018-12-29T14:27:44Z</time>
      </trkpt>
      <trkpt lat="43.28738" lon="5.64104">
        <ele>257.2900390625</ele>
        <time>2018-12-29T14:28:00Z</time>
      </trkpt>
      <trkpt lat="43.28739" lon="5.64103">
        <ele>258.25134277344</ele>
        <time>2018-12-29T14:28:02Z</time>
      </trkpt>
      <trkpt lat="43.28749" lon="5.64101">
        <ele>259.693359375</ele>
        <time>2018-12-29T14:28:09Z</time>
      </trkpt>
      <trkpt lat="43.28765" lon="5.64089">
        <ele>253.92541503906</ele>
        <time>2018-12-29T14:28:21Z</time>
      </trkpt>
      <trkpt lat="43.28769" lon="5.64077">
        <ele>248.63818359375</ele>
        <time>2018-12-29T14:28:30Z</time>
      </trkpt>
      <trkpt lat="43.28773" lon="5.64067">
        <ele>243.35083007812</ele>
        <time>2018-12-29T14:28:39Z</time>
      </trkpt>
      <trkpt lat="43.28778" lon="5.64057">
        <ele>240.94763183594</ele>
        <time>2018-12-29T14:28:47Z</time>
      </trkpt>
      <trkpt lat="43.28781" lon="5.64057">
        <ele>240.94763183594</ele>
        <time>2018-12-29T14:28:49Z</time>
      </trkpt>
      <trkpt lat="43.28782" lon="5.64055">
        <ele>240.94763183594</ele>
        <time>2018-12-29T14:28:51Z</time>
      </trkpt>
      <trkpt lat="43.28786" lon="5.64051">
        <ele>239.50549316406</ele>
        <time>2018-12-29T14:28:55Z</time>
      </trkpt>
      <trkpt lat="43.28796" lon="5.64047">
        <ele>237.10229492188</ele>
        <time>2018-12-29T14:29:06Z</time>
      </trkpt>
      <trkpt lat="43.288" lon="5.64044">
        <ele>237.10229492188</ele>
        <time>2018-12-29T14:29:11Z</time>
      </trkpt>
      <trkpt lat="43.28807" lon="5.64048">
        <ele>236.14099121094</ele>
        <time>2018-12-29T14:29:17Z</time>
      </trkpt>
      <trkpt lat="43.28813" lon="5.64057">
        <ele>236.14099121094</ele>
        <time>2018-12-29T14:29:24Z</time>
      </trkpt>
      <trkpt lat="43.2882" lon="5.64067">
        <ele>236.14099121094</ele>
        <time>2018-12-29T14:29:32Z</time>
      </trkpt>
      <trkpt lat="43.28828" lon="5.64078">
        <ele>235.1796875</ele>
        <time>2018-12-29T14:29:43Z</time>
      </trkpt>
      <trkpt lat="43.28834" lon="5.64084">
        <ele>235.66027832031</ele>
        <time>2018-12-29T14:29:51Z</time>
      </trkpt>
      <trkpt lat="43.28867" lon="5.64068">
        <ele>238.54431152344</ele>
        <time>2018-12-29T14:30:13Z</time>
      </trkpt>
      <trkpt lat="43.28876" lon="5.6405">
        <ele>233.73767089844</ele>
        <time>2018-12-29T14:30:26Z</time>
      </trkpt>
      <trkpt lat="43.28881" lon="5.6404">
        <ele>232.29577636719</ele>
        <time>2018-12-29T14:30:33Z</time>
      </trkpt>
      <trkpt lat="43.28882" lon="5.64038">
        <ele>232.77648925781</ele>
        <time>2018-12-29T14:30:35Z</time>
      </trkpt>
      <trkpt lat="43.28889" lon="5.64015">
        <ele>237.58288574219</ele>
        <time>2018-12-29T14:30:52Z</time>
      </trkpt>
      <trkpt lat="43.28909" lon="5.63999">
        <ele>245.2734375</ele>
        <time>2018-12-29T14:31:11Z</time>
      </trkpt>
      <trkpt lat="43.2893" lon="5.63975">
        <ele>249.59948730469</ele>
        <time>2018-12-29T14:31:29Z</time>
      </trkpt>
      <trkpt lat="43.28933" lon="5.63969">
        <ele>250.56079101562</ele>
        <time>2018-12-29T14:31:34Z</time>
      </trkpt>
      <trkpt lat="43.28941" lon="5.6396">
        <ele>248.15759277344</ele>
        <time>2018-12-29T14:31:44Z</time>
      </trkpt>
      <trkpt lat="43.28948" lon="5.6395">
        <ele>246.71545410156</ele>
        <time>2018-12-29T14:31:54Z</time>
      </trkpt>
      <trkpt lat="43.28953" lon="5.63943">
        <ele>246.23486328125</ele>
        <time>2018-12-29T14:32:00Z</time>
      </trkpt>
      <trkpt lat="43.28957" lon="5.63941">
        <ele>245.75415039062</ele>
        <time>2018-12-29T14:32:02Z</time>
      </trkpt>
      <trkpt lat="43.2896" lon="5.63938">
        <ele>245.75415039062</ele>
        <time>2018-12-29T14:32:06Z</time>
      </trkpt>
      <trkpt lat="43.28966" lon="5.63927">
        <ele>244.79284667969</ele>
        <time>2018-12-29T14:32:15Z</time>
      </trkpt>
      <trkpt lat="43.28973" lon="5.63924">
        <ele>243.83154296875</ele>
        <time>2018-12-29T14:32:20Z</time>
      </trkpt>
      <trkpt lat="43.28984" lon="5.63923">
        <ele>242.3896484375</ele>
        <time>2018-12-29T14:32:31Z</time>
      </trkpt>
      <trkpt lat="43.28991" lon="5.63916">
        <ele>244.31225585938</ele>
        <time>2018-12-29T14:32:41Z</time>
      </trkpt>
      <trkpt lat="43.28991" lon="5.63912">
        <ele>243.35083007812</ele>
        <time>2018-12-29T14:32:44Z</time>
      </trkpt>
      <trkpt lat="43.28996" lon="5.63901">
        <ele>241.42822265625</ele>
        <time>2018-12-29T14:32:51Z</time>
      </trkpt>
      <trkpt lat="43.29004" lon="5.63893">
        <ele>237.10229492188</ele>
        <time>2018-12-29T14:33:05Z</time>
      </trkpt>
      <trkpt lat="43.29018" lon="5.63895">
        <ele>234.69909667969</ele>
        <time>2018-12-29T14:33:15Z</time>
      </trkpt>
      <trkpt lat="43.2902" lon="5.63898">
        <ele>234.21838378906</ele>
        <time>2018-12-29T14:33:21Z</time>
      </trkpt>
      <trkpt lat="43.29027" lon="5.63915">
        <ele>232.77648925781</ele>
        <time>2018-12-29T14:33:32Z</time>
      </trkpt>
      <trkpt lat="43.29027" lon="5.63918">
        <ele>232.29577636719</ele>
        <time>2018-12-29T14:33:34Z</time>
      </trkpt>
      <trkpt lat="43.29031" lon="5.63939">
        <ele>231.81494140625</ele>
        <time>2018-12-29T14:33:51Z</time>
      </trkpt>
      <trkpt lat="43.29031" lon="5.63941">
        <ele>231.33435058594</ele>
        <time>2018-12-29T14:34:07Z</time>
      </trkpt>
      <trkpt lat="43.2903" lon="5.63953">
        <ele>231.81494140625</ele>
        <time>2018-12-29T14:34:17Z</time>
      </trkpt>
      <trkpt lat="43.2902" lon="5.63964">
        <ele>231.81494140625</ele>
        <time>2018-12-29T14:34:27Z</time>
      </trkpt>
      <trkpt lat="43.29008" lon="5.63968">
        <ele>231.81494140625</ele>
        <time>2018-12-29T14:34:38Z</time>
      </trkpt>
      <trkpt lat="43.28996" lon="5.63972">
        <ele>228.93115234375</ele>
        <time>2018-12-29T14:34:51Z</time>
      </trkpt>
      <trkpt lat="43.28984" lon="5.63974">
        <ele>227.00854492188</ele>
        <time>2018-12-29T14:35:04Z</time>
      </trkpt>
      <trkpt lat="43.2898" lon="5.63985">
        <ele>226.52783203125</ele>
        <time>2018-12-29T14:35:12Z</time>
      </trkpt>
      <trkpt lat="43.28977" lon="5.63991">
        <ele>226.52783203125</ele>
        <time>2018-12-29T14:35:16Z</time>
      </trkpt>
      <trkpt lat="43.28986" lon="5.64006">
        <ele>228.45043945312</ele>
        <time>2018-12-29T14:35:32Z</time>
      </trkpt>
      <trkpt lat="43.29004" lon="5.6401">
        <ele>232.77648925781</ele>
        <time>2018-12-29T14:35:49Z</time>
      </trkpt>
      <trkpt lat="43.29025" lon="5.64024">
        <ele>239.02490234375</ele>
        <time>2018-12-29T14:36:13Z</time>
      </trkpt>
      <trkpt lat="43.2903" lon="5.6403">
        <ele>239.02490234375</ele>
        <time>2018-12-29T14:36:20Z</time>
      </trkpt>
      <trkpt lat="43.29031" lon="5.64034">
        <ele>239.50549316406</ele>
        <time>2018-12-29T14:36:24Z</time>
      </trkpt>
      <trkpt lat="43.29033" lon="5.64048">
        <ele>238.54431152344</ele>
        <time>2018-12-29T14:36:36Z</time>
      </trkpt>
      <trkpt lat="43.29038" lon="5.64053">
        <ele>238.06359863281</ele>
        <time>2018-12-29T14:36:43Z</time>
      </trkpt>
      <trkpt lat="43.2904" lon="5.64058">
        <ele>238.06359863281</ele>
        <time>2018-12-29T14:36:47Z</time>
      </trkpt>
      <trkpt lat="43.29039" lon="5.64072">
        <ele>238.54431152344</ele>
        <time>2018-12-29T14:36:59Z</time>
      </trkpt>
      <trkpt lat="43.29039" lon="5.64075">
        <ele>238.54431152344</ele>
        <time>2018-12-29T14:37:01Z</time>
      </trkpt>
      <trkpt lat="43.2904" lon="5.64083">
        <ele>241.42822265625</ele>
        <time>2018-12-29T14:37:13Z</time>
      </trkpt>
      <trkpt lat="43.29039" lon="5.64096">
        <ele>244.79284667969</ele>
        <time>2018-12-29T14:37:28Z</time>
      </trkpt>
      <trkpt lat="43.29034" lon="5.64104">
        <ele>246.23486328125</ele>
        <time>2018-12-29T14:37:34Z</time>
      </trkpt>
      <trkpt lat="43.29035" lon="5.64112">
        <ele>248.15759277344</ele>
        <time>2018-12-29T14:37:45Z</time>
      </trkpt>
      <trkpt lat="43.29032" lon="5.64119">
        <ele>250.08020019531</ele>
        <time>2018-12-29T14:38:04Z</time>
      </trkpt>
      <trkpt lat="43.29027" lon="5.64133">
        <ele>252.4833984375</ele>
        <time>2018-12-29T14:38:18Z</time>
      </trkpt>
      <trkpt lat="43.29027" lon="5.64141">
        <ele>255.36730957031</ele>
        <time>2018-12-29T14:38:28Z</time>
      </trkpt>
      <trkpt lat="43.29024" lon="5.64164">
        <ele>257.77075195312</ele>
        <time>2018-12-29T14:38:46Z</time>
      </trkpt>
      <trkpt lat="43.29024" lon="5.64167">
        <ele>258.25134277344</ele>
        <time>2018-12-29T14:38:48Z</time>
      </trkpt>
      <trkpt lat="43.29023" lon="5.64175">
        <ele>259.21264648438</ele>
        <time>2018-12-29T14:38:53Z</time>
      </trkpt>
      <trkpt lat="43.29022" lon="5.64182">
        <ele>259.21264648438</ele>
        <time>2018-12-29T14:38:57Z</time>
      </trkpt>
      <trkpt lat="43.2902" lon="5.64201">
        <ele>263.05786132812</ele>
        <time>2018-12-29T14:39:09Z</time>
      </trkpt>
      <trkpt lat="43.29017" lon="5.6423">
        <ele>268.82580566406</ele>
        <time>2018-12-29T14:39:30Z</time>
      </trkpt>
      <trkpt lat="43.29017" lon="5.64231">
        <ele>269.30651855469</ele>
        <time>2018-12-29T14:39:31Z</time>
      </trkpt>
      <trkpt lat="43.29002" lon="5.64256">
        <ele>274.59375</ele>
        <time>2018-12-29T14:39:53Z</time>
      </trkpt>
      <trkpt lat="43.29001" lon="5.64259">
        <ele>275.07446289062</ele>
        <time>2018-12-29T14:39:55Z</time>
      </trkpt>
      <trkpt lat="43.28996" lon="5.6427">
        <ele>276.51635742188</ele>
        <time>2018-12-29T14:40:04Z</time>
      </trkpt>
      <trkpt lat="43.28985" lon="5.64288">
        <ele>277.95825195312</ele>
        <time>2018-12-29T14:40:21Z</time>
      </trkpt>
      <trkpt lat="43.28972" lon="5.64293">
        <ele>278.91967773438</ele>
        <time>2018-12-29T14:40:34Z</time>
      </trkpt>
      <trkpt lat="43.28962" lon="5.64299">
        <ele>279.880859375</ele>
        <time>2018-12-29T14:40:48Z</time>
      </trkpt>
      <trkpt lat="43.28942" lon="5.643">
        <ele>280.84240722656</ele>
        <time>2018-12-29T14:41:11Z</time>
      </trkpt>
      <trkpt lat="43.28929" lon="5.64298">
        <ele>282.28430175781</ele>
        <time>2018-12-29T14:41:25Z</time>
      </trkpt>
      <trkpt lat="43.28912" lon="5.64299">
        <ele>285.16821289062</ele>
        <time>2018-12-29T14:41:45Z</time>
      </trkpt>
      <trkpt lat="43.28904" lon="5.64298">
        <ele>287.0908203125</ele>
        <time>2018-12-29T14:42:01Z</time>
      </trkpt>
      <trkpt lat="43.28878" lon="5.64304">
        <ele>290.45556640625</ele>
        <time>2018-12-29T14:42:24Z</time>
      </trkpt>
      <trkpt lat="43.28852" lon="5.64319">
        <ele>293.82006835938</ele>
        <time>2018-12-29T14:42:46Z</time>
      </trkpt>
      <trkpt lat="43.28841" lon="5.64318">
        <ele>295.74267578125</ele>
        <time>2018-12-29T14:43:00Z</time>
      </trkpt>
      <trkpt lat="43.28835" lon="5.6432">
        <ele>296.7041015625</ele>
        <time>2018-12-29T14:43:05Z</time>
      </trkpt>
      <trkpt lat="43.28818" lon="5.64322">
        <ele>301.02990722656</ele>
        <time>2018-12-29T14:43:21Z</time>
      </trkpt>
      <trkpt lat="43.28806" lon="5.64329">
        <ele>303.91394042969</ele>
        <time>2018-12-29T14:43:38Z</time>
      </trkpt>
      <trkpt lat="43.28799" lon="5.64334">
        <ele>303.91394042969</ele>
        <time>2018-12-29T14:43:44Z</time>
      </trkpt>
      <trkpt lat="43.28789" lon="5.64344">
        <ele>301.99133300781</ele>
        <time>2018-12-29T14:43:56Z</time>
      </trkpt>
      <trkpt lat="43.28776" lon="5.64363">
        <ele>302.95251464844</ele>
        <time>2018-12-29T14:44:14Z</time>
      </trkpt>
      <trkpt lat="43.2877" lon="5.64375">
        <ele>304.87524414062</ele>
        <time>2018-12-29T14:44:27Z</time>
      </trkpt>
      <trkpt lat="43.28762" lon="5.64386">
        <ele>307.27856445312</ele>
        <time>2018-12-29T14:44:49Z</time>
      </trkpt>
      <trkpt lat="43.28765" lon="5.64386">
        <ele>307.27856445312</ele>
        <time>2018-12-29T14:45:45Z</time>
      </trkpt>
      <trkpt lat="43.28753" lon="5.64401">
        <ele>306.7978515625</ele>
        <time>2018-12-29T14:46:39Z</time>
      </trkpt>
      <trkpt lat="43.28754" lon="5.64403">
        <ele>306.7978515625</ele>
        <time>2018-12-29T14:46:40Z</time>
      </trkpt>
      <trkpt lat="43.28752" lon="5.64406">
        <ele>306.31726074219</ele>
        <time>2018-12-29T14:46:42Z</time>
      </trkpt>
      <trkpt lat="43.28742" lon="5.64427">
        <ele>305.83666992188</ele>
        <time>2018-12-29T14:46:59Z</time>
      </trkpt>
      <trkpt lat="43.28733" lon="5.64446">
        <ele>303.91394042969</ele>
        <time>2018-12-29T14:47:14Z</time>
      </trkpt>
      <trkpt lat="43.28729" lon="5.64454">
        <ele>304.39465332031</ele>
        <time>2018-12-29T14:47:21Z</time>
      </trkpt>
      <trkpt lat="43.28728" lon="5.64456">
        <ele>304.87524414062</ele>
        <time>2018-12-29T14:47:23Z</time>
      </trkpt>
      <trkpt lat="43.28726" lon="5.64464">
        <ele>305.35595703125</ele>
        <time>2018-12-29T14:47:30Z</time>
      </trkpt>
      <trkpt lat="43.28721" lon="5.64475">
        <ele>308.23986816406</ele>
        <time>2018-12-29T14:47:40Z</time>
      </trkpt>
      <trkpt lat="43.2872" lon="5.64488">
        <ele>306.7978515625</ele>
        <time>2018-12-29T14:47:53Z</time>
      </trkpt>
      <trkpt lat="43.28716" lon="5.645">
        <ele>305.35595703125</ele>
        <time>2018-12-29T14:48:05Z</time>
      </trkpt>
      <trkpt lat="43.28715" lon="5.64505">
        <ele>305.35595703125</ele>
        <time>2018-12-29T14:48:08Z</time>
      </trkpt>
      <trkpt lat="43.28714" lon="5.64514">
        <ele>304.87524414062</ele>
        <time>2018-12-29T14:48:14Z</time>
      </trkpt>
      <trkpt lat="43.28714" lon="5.6452">
        <ele>304.87524414062</ele>
        <time>2018-12-29T14:48:18Z</time>
      </trkpt>
      <trkpt lat="43.28718" lon="5.64526">
        <ele>306.31726074219</ele>
        <time>2018-12-29T14:48:32Z</time>
      </trkpt>
      <trkpt lat="43.28715" lon="5.64532">
        <ele>304.87524414062</ele>
        <time>2018-12-29T14:48:51Z</time>
      </trkpt>
      <trkpt lat="43.28713" lon="5.64557">
        <ele>311.12377929688</ele>
        <time>2018-12-29T14:49:08Z</time>
      </trkpt>
      <trkpt lat="43.28712" lon="5.64558">
        <ele>311.12377929688</ele>
        <time>2018-12-29T14:49:09Z</time>
      </trkpt>
      <trkpt lat="43.28712" lon="5.64562">
        <ele>311.6044921875</ele>
        <time>2018-12-29T14:49:12Z</time>
      </trkpt>
      <trkpt lat="43.2871" lon="5.64568">
        <ele>311.12377929688</ele>
        <time>2018-12-29T14:49:17Z</time>
      </trkpt>
      <trkpt lat="43.28708" lon="5.6458">
        <ele>314.48840332031</ele>
        <time>2018-12-29T14:49:32Z</time>
      </trkpt>
      <trkpt lat="43.28709" lon="5.64581">
        <ele>314.48840332031</ele>
        <time>2018-12-29T14:49:33Z</time>
      </trkpt>
      <trkpt lat="43.28707" lon="5.64587">
        <ele>314.48840332031</ele>
        <time>2018-12-29T14:49:37Z</time>
      </trkpt>
      <trkpt lat="43.28708" lon="5.64599">
        <ele>316.89172363281</ele>
        <time>2018-12-29T14:49:45Z</time>
      </trkpt>
      <trkpt lat="43.28702" lon="5.64618">
        <ele>323.62097167969</ele>
        <time>2018-12-29T14:50:00Z</time>
      </trkpt>
      <trkpt lat="43.287" lon="5.64622">
        <ele>324.1015625</ele>
        <time>2018-12-29T14:50:03Z</time>
      </trkpt>
      <trkpt lat="43.28695" lon="5.64622">
        <ele>326.02416992188</ele>
        <time>2018-12-29T14:50:10Z</time>
      </trkpt>
      <trkpt lat="43.28696" lon="5.6461">
        <ele>329.38891601562</ele>
        <time>2018-12-29T14:50:19Z</time>
      </trkpt>
      <trkpt lat="43.28697" lon="5.64598">
        <ele>330.83093261719</ele>
        <time>2018-12-29T14:50:28Z</time>
      </trkpt>
      <trkpt lat="43.28698" lon="5.64589">
        <ele>332.27282714844</ele>
        <time>2018-12-29T14:50:35Z</time>
      </trkpt>
      <trkpt lat="43.28696" lon="5.64585">
        <ele>332.27282714844</ele>
        <time>2018-12-29T14:50:38Z</time>
      </trkpt>
      <trkpt lat="43.28695" lon="5.64573">
        <ele>332.27282714844</ele>
        <time>2018-12-29T14:50:53Z</time>
      </trkpt>
      <trkpt lat="43.28696" lon="5.64571">
        <ele>332.27282714844</ele>
        <time>2018-12-29T14:50:56Z</time>
      </trkpt>
      <trkpt lat="43.28697" lon="5.64558">
        <ele>334.67614746094</ele>
        <time>2018-12-29T14:51:07Z</time>
      </trkpt>
      <trkpt lat="43.28694" lon="5.64549">
        <ele>336.1181640625</ele>
        <time>2018-12-29T14:51:12Z</time>
      </trkpt>
      <trkpt lat="43.28686" lon="5.6453">
        <ele>340.44409179688</ele>
        <time>2018-12-29T14:51:28Z</time>
      </trkpt>
      <trkpt lat="43.28686" lon="5.64527">
        <ele>340.92468261719</ele>
        <time>2018-12-29T14:51:30Z</time>
      </trkpt>
      <trkpt lat="43.28688" lon="5.64519">
        <ele>336.1181640625</ele>
        <time>2018-12-29T14:51:34Z</time>
      </trkpt>
      <trkpt lat="43.28686" lon="5.64508">
        <ele>334.19543457031</ele>
        <time>2018-12-29T14:51:42Z</time>
      </trkpt>
      <trkpt lat="43.28682" lon="5.64494">
        <ele>331.3115234375</ele>
        <time>2018-12-29T14:51:52Z</time>
      </trkpt>
      <trkpt lat="43.28678" lon="5.64483">
        <ele>329.86950683594</ele>
        <time>2018-12-29T14:52:00Z</time>
      </trkpt>
      <trkpt lat="43.28667" lon="5.64463">
        <ele>326.98559570312</ele>
        <time>2018-12-29T14:52:15Z</time>
      </trkpt>
      <trkpt lat="43.2866" lon="5.64465">
        <ele>327.46618652344</ele>
        <time>2018-12-29T14:52:23Z</time>
      </trkpt>
      <trkpt lat="43.28652" lon="5.64473">
        <ele>326.02416992188</ele>
        <time>2018-12-29T14:52:35Z</time>
      </trkpt>
      <trkpt lat="43.28648" lon="5.64476">
        <ele>326.02416992188</ele>
        <time>2018-12-29T14:52:45Z</time>
      </trkpt>
      <trkpt lat="43.28642" lon="5.64487">
        <ele>329.86950683594</ele>
        <time>2018-12-29T14:52:57Z</time>
      </trkpt>
      <trkpt lat="43.28641" lon="5.64488">
        <ele>330.35021972656</ele>
        <time>2018-12-29T14:52:58Z</time>
      </trkpt>
      <trkpt lat="43.28632" lon="5.64505">
        <ele>335.63732910156</ele>
        <time>2018-12-29T14:53:15Z</time>
      </trkpt>
      <trkpt lat="43.28627" lon="5.6452">
        <ele>337.07946777344</ele>
        <time>2018-12-29T14:53:28Z</time>
      </trkpt>
      <trkpt lat="43.28618" lon="5.6454">
        <ele>340.44409179688</ele>
        <time>2018-12-29T14:53:47Z</time>
      </trkpt>
      <trkpt lat="43.28616" lon="5.64543">
        <ele>340.92468261719</ele>
        <time>2018-12-29T14:53:50Z</time>
      </trkpt>
      <trkpt lat="43.28605" lon="5.64553">
        <ele>344.28942871094</ele>
        <time>2018-12-29T14:54:07Z</time>
      </trkpt>
      <trkpt lat="43.28598" lon="5.64571">
        <ele>345.25061035156</ele>
        <time>2018-12-29T14:54:39Z</time>
      </trkpt>
      <trkpt lat="43.28587" lon="5.64586">
        <ele>346.69262695312</ele>
        <time>2018-12-29T14:54:52Z</time>
      </trkpt>
      <trkpt lat="43.28579" lon="5.64596">
        <ele>347.17321777344</ele>
        <time>2018-12-29T14:55:03Z</time>
      </trkpt>
      <trkpt lat="43.28577" lon="5.64598">
        <ele>347.17321777344</ele>
        <time>2018-12-29T14:55:05Z</time>
      </trkpt>
      <trkpt lat="43.28575" lon="5.64605">
        <ele>347.65393066406</ele>
        <time>2018-12-29T14:55:08Z</time>
      </trkpt>
      <trkpt lat="43.28568" lon="5.64615">
        <ele>348.615234375</ele>
        <time>2018-12-29T14:55:18Z</time>
      </trkpt>
      <trkpt lat="43.28556" lon="5.6462">
        <ele>351.97985839844</ele>
        <time>2018-12-29T14:55:33Z</time>
      </trkpt>
      <trkpt lat="43.28537" lon="5.64635">
        <ele>353.90258789062</ele>
        <time>2018-12-29T14:55:51Z</time>
      </trkpt>
      <trkpt lat="43.28527" lon="5.64639">
        <ele>354.86376953125</ele>
        <time>2018-12-29T14:56:00Z</time>
      </trkpt>
      <trkpt lat="43.28514" lon="5.64645">
        <ele>355.8251953125</ele>
        <time>2018-12-29T14:56:12Z</time>
      </trkpt>
      <trkpt lat="43.28499" lon="5.64664">
        <ele>354.38317871094</ele>
        <time>2018-12-29T14:56:30Z</time>
      </trkpt>
      <trkpt lat="43.28481" lon="5.64666">
        <ele>353.90258789062</ele>
        <time>2018-12-29T14:56:47Z</time>
      </trkpt>
      <trkpt lat="43.28469" lon="5.64666">
        <ele>353.421875</ele>
        <time>2018-12-29T14:56:59Z</time>
      </trkpt>
      <trkpt lat="43.28459" lon="5.64671">
        <ele>356.30578613281</ele>
        <time>2018-12-29T14:57:08Z</time>
      </trkpt>
      <trkpt lat="43.28453" lon="5.64676">
        <ele>359.18969726562</ele>
        <time>2018-12-29T14:57:14Z</time>
      </trkpt>
      <trkpt lat="43.28438" lon="5.64681">
        <ele>362.55432128906</ele>
        <time>2018-12-29T14:57:30Z</time>
      </trkpt>
      <trkpt lat="43.28425" lon="5.64686">
        <ele>362.55432128906</ele>
        <time>2018-12-29T14:57:46Z</time>
      </trkpt>
      <trkpt lat="43.28403" lon="5.64688">
        <ele>365.43835449219</ele>
        <time>2018-12-29T14:58:09Z</time>
      </trkpt>
      <trkpt lat="43.28401" lon="5.64686">
        <ele>365.9189453125</ele>
        <time>2018-12-29T14:58:12Z</time>
      </trkpt>
      <trkpt lat="43.28396" lon="5.64665">
        <ele>369.28369140625</ele>
        <time>2018-12-29T14:58:31Z</time>
      </trkpt>
      <trkpt lat="43.28384" lon="5.64643">
        <ele>369.76428222656</ele>
        <time>2018-12-29T14:58:48Z</time>
      </trkpt>
      <trkpt lat="43.28373" lon="5.64638">
        <ele>370.24487304688</ele>
        <time>2018-12-29T14:59:00Z</time>
      </trkpt>
      <trkpt lat="43.28369" lon="5.64636">
        <ele>370.7255859375</ele>
        <time>2018-12-29T14:59:04Z</time>
      </trkpt>
      <trkpt lat="43.28356" lon="5.64636">
        <ele>371.68688964844</ele>
        <time>2018-12-29T14:59:18Z</time>
      </trkpt>
      <trkpt lat="43.28348" lon="5.64631">
        <ele>374.57080078125</ele>
        <time>2018-12-29T14:59:27Z</time>
      </trkpt>
      <trkpt lat="43.2834" lon="5.64626">
        <ele>377.45483398438</ele>
        <time>2018-12-29T14:59:39Z</time>
      </trkpt>
      <trkpt lat="43.28334" lon="5.64613">
        <ele>380.33874511719</ele>
        <time>2018-12-29T14:59:46Z</time>
      </trkpt>
      <trkpt lat="43.28334" lon="5.64605">
        <ele>381.78063964844</ele>
        <time>2018-12-29T15:00:00Z</time>
      </trkpt>
      <trkpt lat="43.28326" lon="5.64601">
        <ele>380.33874511719</ele>
        <time>2018-12-29T15:00:09Z</time>
      </trkpt>
      <trkpt lat="43.28301" lon="5.646">
        <ele>382.26135253906</ele>
        <time>2018-12-29T15:00:31Z</time>
      </trkpt>
      <trkpt lat="43.2828" lon="5.64617">
        <ele>389.47119140625</ele>
        <time>2018-12-29T15:01:04Z</time>
      </trkpt>
      <trkpt lat="43.28276" lon="5.64625">
        <ele>393.31652832031</ele>
        <time>2018-12-29T15:01:26Z</time>
      </trkpt>
      <trkpt lat="43.28271" lon="5.64643">
        <ele>399.08435058594</ele>
        <time>2018-12-29T15:01:45Z</time>
      </trkpt>
      <trkpt lat="43.28266" lon="5.64659">
        <ele>404.85229492188</ele>
        <time>2018-12-29T15:02:13Z</time>
      </trkpt>
      <trkpt lat="43.28268" lon="5.64653">
        <ele>403.89111328125</ele>
        <time>2018-12-29T15:02:29Z</time>
      </trkpt>
      <trkpt lat="43.28269" lon="5.64647">
        <ele>401.96850585938</ele>
        <time>2018-12-29T15:02:43Z</time>
      </trkpt>
      <trkpt lat="43.28274" lon="5.64638">
        <ele>401.96850585938</ele>
        <time>2018-12-29T15:03:02Z</time>
      </trkpt>
      <trkpt lat="43.28289" lon="5.64612">
        <ele>397.16174316406</ele>
        <time>2018-12-29T15:03:36Z</time>
      </trkpt>
      <trkpt lat="43.28304" lon="5.64602">
        <ele>394.27795410156</ele>
        <time>2018-12-29T15:04:00Z</time>
      </trkpt>
      <trkpt lat="43.28313" lon="5.64596">
        <ele>391.87451171875</ele>
        <time>2018-12-29T15:04:24Z</time>
      </trkpt>
      <trkpt lat="43.28323" lon="5.64598">
        <ele>389.95190429688</ele>
        <time>2018-12-29T15:04:39Z</time>
      </trkpt>
      <trkpt lat="43.28348" lon="5.64588">
        <ele>389.95190429688</ele>
        <time>2018-12-29T15:04:57Z</time>
      </trkpt>
      <trkpt lat="43.28364" lon="5.64577">
        <ele>387.54858398438</ele>
        <time>2018-12-29T15:05:15Z</time>
      </trkpt>
      <trkpt lat="43.2837" lon="5.64567">
        <ele>386.58740234375</ele>
        <time>2018-12-29T15:05:25Z</time>
      </trkpt>
      <trkpt lat="43.28377" lon="5.64544">
        <ele>382.74206542969</ele>
        <time>2018-12-29T15:05:45Z</time>
      </trkpt>
      <trkpt lat="43.28378" lon="5.64539">
        <ele>383.70324707031</ele>
        <time>2018-12-29T15:05:48Z</time>
      </trkpt>
      <trkpt lat="43.28378" lon="5.64517">
        <ele>384.66479492188</ele>
        <time>2018-12-29T15:06:02Z</time>
      </trkpt>
      <trkpt lat="43.28377" lon="5.64506">
        <ele>383.70324707031</ele>
        <time>2018-12-29T15:06:09Z</time>
      </trkpt>
      <trkpt lat="43.28375" lon="5.64478">
        <ele>385.14538574219</ele>
        <time>2018-12-29T15:06:26Z</time>
      </trkpt>
      <trkpt lat="43.28373" lon="5.64473">
        <ele>385.14538574219</ele>
        <time>2018-12-29T15:06:30Z</time>
      </trkpt>
      <trkpt lat="43.28374" lon="5.64467">
        <ele>386.58740234375</ele>
        <time>2018-12-29T15:06:34Z</time>
      </trkpt>
      <trkpt lat="43.28358" lon="5.64458">
        <ele>388.51000976562</ele>
        <time>2018-12-29T15:06:51Z</time>
      </trkpt>
      <trkpt lat="43.28337" lon="5.64468">
        <ele>385.6259765625</ele>
        <time>2018-12-29T15:07:10Z</time>
      </trkpt>
      <trkpt lat="43.28332" lon="5.64472">
        <ele>385.14538574219</ele>
        <time>2018-12-29T15:07:15Z</time>
      </trkpt>
      <trkpt lat="43.28327" lon="5.64477">
        <ele>385.6259765625</ele>
        <time>2018-12-29T15:07:22Z</time>
      </trkpt>
      <trkpt lat="43.28315" lon="5.64492">
        <ele>385.6259765625</ele>
        <time>2018-12-29T15:07:41Z</time>
      </trkpt>
      <trkpt lat="43.28303" lon="5.6451">
        <ele>385.14538574219</ele>
        <time>2018-12-29T15:07:58Z</time>
      </trkpt>
      <trkpt lat="43.28294" lon="5.6452">
        <ele>385.14538574219</ele>
        <time>2018-12-29T15:08:09Z</time>
      </trkpt>
      <trkpt lat="43.28291" lon="5.64525">
        <ele>385.6259765625</ele>
        <time>2018-12-29T15:08:15Z</time>
      </trkpt>
      <trkpt lat="43.28278" lon="5.64536">
        <ele>387.54858398438</ele>
        <time>2018-12-29T15:08:30Z</time>
      </trkpt>
      <trkpt lat="43.28269" lon="5.64542">
        <ele>387.54858398438</ele>
        <time>2018-12-29T15:08:40Z</time>
      </trkpt>
      <trkpt lat="43.28266" lon="5.6455">
        <ele>387.06799316406</ele>
        <time>2018-12-29T15:08:47Z</time>
      </trkpt>
      <trkpt lat="43.28251" lon="5.64555">
        <ele>389.47119140625</ele>
        <time>2018-12-29T15:09:04Z</time>
      </trkpt>
      <trkpt lat="43.28244" lon="5.64535">
        <ele>391.87451171875</ele>
        <time>2018-12-29T15:09:22Z</time>
      </trkpt>
      <trkpt lat="43.28242" lon="5.64526">
        <ele>395.71984863281</ele>
        <time>2018-12-29T15:09:43Z</time>
      </trkpt>
      <trkpt lat="43.28234" lon="5.64524">
        <ele>397.16174316406</ele>
        <time>2018-12-29T15:09:57Z</time>
      </trkpt>
      <trkpt lat="43.28224" lon="5.64525">
        <ele>401.00708007812</ele>
        <time>2018-12-29T15:10:57Z</time>
      </trkpt>
      <trkpt lat="43.28221" lon="5.6452">
        <ele>399.56506347656</ele>
        <time>2018-12-29T15:11:03Z</time>
      </trkpt>
      <trkpt lat="43.28212" lon="5.64508">
        <ele>399.08435058594</ele>
        <time>2018-12-29T15:11:16Z</time>
      </trkpt>
      <trkpt lat="43.28206" lon="5.64494">
        <ele>397.16174316406</ele>
        <time>2018-12-29T15:11:31Z</time>
      </trkpt>
      <trkpt lat="43.28206" lon="5.64488">
        <ele>394.75854492188</ele>
        <time>2018-12-29T15:11:55Z</time>
      </trkpt>
      <trkpt lat="43.28194" lon="5.6447">
        <ele>391.87451171875</ele>
        <time>2018-12-29T15:12:14Z</time>
      </trkpt>
      <trkpt lat="43.28184" lon="5.64454">
        <ele>392.35534667969</ele>
        <time>2018-12-29T15:12:33Z</time>
      </trkpt>
      <trkpt lat="43.28169" lon="5.64444">
        <ele>393.31652832031</ele>
        <time>2018-12-29T15:12:46Z</time>
      </trkpt>
      <trkpt lat="43.28167" lon="5.64444">
        <ele>393.31652832031</ele>
        <time>2018-12-29T15:12:48Z</time>
      </trkpt>
      <trkpt lat="43.28161" lon="5.64444">
        <ele>395.23913574219</ele>
        <time>2018-12-29T15:13:04Z</time>
      </trkpt>
      <trkpt lat="43.28161" lon="5.64444">
        <ele>395.23913574219</ele>
        <time>2018-12-29T15:13:40Z</time>
      </trkpt>
      <trkpt lat="43.28149" lon="5.64428">
        <ele>398.12316894531</ele>
        <time>2018-12-29T15:13:56Z</time>
      </trkpt>
      <trkpt lat="43.28145" lon="5.64422">
        <ele>397.64245605469</ele>
        <time>2018-12-29T15:14:00Z</time>
      </trkpt>
      <trkpt lat="43.28133" lon="5.64411">
        <ele>398.60375976562</ele>
        <time>2018-12-29T15:14:19Z</time>
      </trkpt>
      <trkpt lat="43.28119" lon="5.64398">
        <ele>398.12316894531</ele>
        <time>2018-12-29T15:14:39Z</time>
      </trkpt>
      <trkpt lat="43.28114" lon="5.64393">
        <ele>397.16174316406</ele>
        <time>2018-12-29T15:14:45Z</time>
      </trkpt>
      <trkpt lat="43.28112" lon="5.6439">
        <ele>392.8359375</ele>
        <time>2018-12-29T15:15:00Z</time>
      </trkpt>
      <trkpt lat="43.28101" lon="5.64388">
        <ele>390.4326171875</ele>
        <time>2018-12-29T15:15:12Z</time>
      </trkpt>
      <trkpt lat="43.281" lon="5.64388">
        <ele>390.4326171875</ele>
        <time>2018-12-29T15:15:13Z</time>
      </trkpt>
      <trkpt lat="43.28079" lon="5.64395">
        <ele>390.4326171875</ele>
        <time>2018-12-29T15:15:31Z</time>
      </trkpt>
      <trkpt lat="43.28076" lon="5.64392">
        <ele>389.95190429688</ele>
        <time>2018-12-29T15:15:34Z</time>
      </trkpt>
      <trkpt lat="43.28075" lon="5.64388">
        <ele>389.95190429688</ele>
        <time>2018-12-29T15:15:37Z</time>
      </trkpt>
      <trkpt lat="43.28079" lon="5.64383">
        <ele>388.99060058594</ele>
        <time>2018-12-29T15:15:42Z</time>
      </trkpt>
      <trkpt lat="43.28089" lon="5.64369">
        <ele>388.51000976562</ele>
        <time>2018-12-29T15:15:58Z</time>
      </trkpt>
      <trkpt lat="43.28098" lon="5.64358">
        <ele>387.54858398438</ele>
        <time>2018-12-29T15:16:10Z</time>
      </trkpt>
      <trkpt lat="43.281" lon="5.64347">
        <ele>388.99060058594</ele>
        <time>2018-12-29T15:16:26Z</time>
      </trkpt>
      <trkpt lat="43.281" lon="5.64342">
        <ele>389.95190429688</ele>
        <time>2018-12-29T15:16:43Z</time>
      </trkpt>
      <trkpt lat="43.28113" lon="5.64324">
        <ele>387.06799316406</ele>
        <time>2018-12-29T15:17:37Z</time>
      </trkpt>
      <trkpt lat="43.28125" lon="5.64308">
        <ele>386.10668945312</ele>
        <time>2018-12-29T15:17:52Z</time>
      </trkpt>
      <trkpt lat="43.28127" lon="5.64305">
        <ele>384.66479492188</ele>
        <time>2018-12-29T15:17:56Z</time>
      </trkpt>
      <trkpt lat="43.28139" lon="5.64284">
        <ele>376.97424316406</ele>
        <time>2018-12-29T15:18:14Z</time>
      </trkpt>
      <trkpt lat="43.28146" lon="5.64273">
        <ele>372.16748046875</ele>
        <time>2018-12-29T15:18:27Z</time>
      </trkpt>
      <trkpt lat="43.28146" lon="5.6426">
        <ele>368.322265625</ele>
        <time>2018-12-29T15:18:47Z</time>
      </trkpt>
      <trkpt lat="43.28146" lon="5.64254">
        <ele>364.47692871094</ele>
        <time>2018-12-29T15:19:06Z</time>
      </trkpt>
      <trkpt lat="43.28147" lon="5.6425">
        <ele>363.51574707031</ele>
        <time>2018-12-29T15:19:11Z</time>
      </trkpt>
      <trkpt lat="43.28153" lon="5.64233">
        <ele>362.07373046875</ele>
        <time>2018-12-29T15:19:31Z</time>
      </trkpt>
      <trkpt lat="43.28158" lon="5.64216">
        <ele>360.63171386719</ele>
        <time>2018-12-29T15:19:53Z</time>
      </trkpt>
      <trkpt lat="43.28166" lon="5.64201">
        <ele>357.74780273438</ele>
        <time>2018-12-29T15:20:11Z</time>
      </trkpt>
      <trkpt lat="43.28168" lon="5.64179">
        <ele>354.86376953125</ele>
        <time>2018-12-29T15:20:25Z</time>
      </trkpt>
      <trkpt lat="43.28164" lon="5.64161">
        <ele>349.09582519531</ele>
        <time>2018-12-29T15:20:40Z</time>
      </trkpt>
      <trkpt lat="43.28162" lon="5.64159">
        <ele>350.53784179688</ele>
        <time>2018-12-29T15:20:54Z</time>
      </trkpt>
      <trkpt lat="43.28159" lon="5.64151">
        <ele>349.57653808594</ele>
        <time>2018-12-29T15:21:01Z</time>
      </trkpt>
      <trkpt lat="43.28156" lon="5.64141">
        <ele>350.05725097656</ele>
        <time>2018-12-29T15:21:18Z</time>
      </trkpt>
      <trkpt lat="43.28155" lon="5.64125">
        <ele>347.17321777344</ele>
        <time>2018-12-29T15:21:33Z</time>
      </trkpt>
      <trkpt lat="43.28155" lon="5.64124">
        <ele>346.69262695312</ele>
        <time>2018-12-29T15:21:34Z</time>
      </trkpt>
      <trkpt lat="43.28155" lon="5.64097">
        <ele>342.84729003906</ele>
        <time>2018-12-29T15:21:51Z</time>
      </trkpt>
      <trkpt lat="43.28153" lon="5.64082">
        <ele>343.32788085938</ele>
        <time>2018-12-29T15:22:03Z</time>
      </trkpt>
      <trkpt lat="43.28153" lon="5.64061">
        <ele>342.84729003906</ele>
        <time>2018-12-29T15:22:20Z</time>
      </trkpt>
      <trkpt lat="43.28153" lon="5.6404">
        <ele>343.32788085938</ele>
        <time>2018-12-29T15:22:39Z</time>
      </trkpt>
      <trkpt lat="43.2815" lon="5.64013">
        <ele>344.77001953125</ele>
        <time>2018-12-29T15:22:57Z</time>
      </trkpt>
      <trkpt lat="43.28144" lon="5.63991">
        <ele>342.84729003906</ele>
        <time>2018-12-29T15:23:18Z</time>
      </trkpt>
      <trkpt lat="43.28143" lon="5.63974">
        <ele>342.84729003906</ele>
        <time>2018-12-29T15:23:31Z</time>
      </trkpt>
      <trkpt lat="43.2814" lon="5.63947">
        <ele>339.00207519531</ele>
        <time>2018-12-29T15:23:49Z</time>
      </trkpt>
      <trkpt lat="43.28137" lon="5.63931">
        <ele>336.59887695312</ele>
        <time>2018-12-29T15:24:00Z</time>
      </trkpt>
      <trkpt lat="43.28138" lon="5.63922">
        <ele>335.15673828125</ele>
        <time>2018-12-29T15:24:12Z</time>
      </trkpt>
      <trkpt lat="43.28137" lon="5.63919">
        <ele>335.15673828125</ele>
        <time>2018-12-29T15:24:14Z</time>
      </trkpt>
      <trkpt lat="43.28134" lon="5.63907">
        <ele>333.23413085938</ele>
        <time>2018-12-29T15:24:21Z</time>
      </trkpt>
      <trkpt lat="43.28132" lon="5.63884">
        <ele>332.27282714844</ele>
        <time>2018-12-29T15:24:39Z</time>
      </trkpt>
      <trkpt lat="43.28135" lon="5.63876">
        <ele>331.79211425781</ele>
        <time>2018-12-29T15:24:46Z</time>
      </trkpt>
      <trkpt lat="43.28138" lon="5.63873">
        <ele>331.79211425781</ele>
        <time>2018-12-29T15:24:50Z</time>
      </trkpt>
      <trkpt lat="43.28148" lon="5.6386">
        <ele>329.38891601562</ele>
        <time>2018-12-29T15:25:06Z</time>
      </trkpt>
      <trkpt lat="43.28166" lon="5.63852">
        <ele>326.98559570312</ele>
        <time>2018-12-29T15:25:26Z</time>
      </trkpt>
      <trkpt lat="43.28181" lon="5.63849">
        <ele>325.06298828125</ele>
        <time>2018-12-29T15:25:39Z</time>
      </trkpt>
      <trkpt lat="43.28197" lon="5.63832">
        <ele>322.65966796875</ele>
        <time>2018-12-29T15:25:55Z</time>
      </trkpt>
      <trkpt lat="43.28217" lon="5.63814">
        <ele>324.1015625</ele>
        <time>2018-12-29T15:26:13Z</time>
      </trkpt>
      <trkpt lat="43.28223" lon="5.638">
        <ele>325.06298828125</ele>
        <time>2018-12-29T15:26:23Z</time>
      </trkpt>
      <trkpt lat="43.28233" lon="5.63776">
        <ele>321.69836425781</ele>
        <time>2018-12-29T15:26:43Z</time>
      </trkpt>
      <trkpt lat="43.28242" lon="5.63753">
        <ele>320.73706054688</ele>
        <time>2018-12-29T15:27:02Z</time>
      </trkpt>
      <trkpt lat="43.28254" lon="5.63729">
        <ele>319.29504394531</ele>
        <time>2018-12-29T15:27:19Z</time>
      </trkpt>
      <trkpt lat="43.28254" lon="5.63728">
        <ele>319.29504394531</ele>
        <time>2018-12-29T15:27:20Z</time>
      </trkpt>
      <trkpt lat="43.28255" lon="5.6371">
        <ele>318.81433105469</ele>
        <time>2018-12-29T15:27:33Z</time>
      </trkpt>
      <trkpt lat="43.28258" lon="5.63699">
        <ele>316.41101074219</ele>
        <time>2018-12-29T15:27:40Z</time>
      </trkpt>
      <trkpt lat="43.28259" lon="5.63668">
        <ele>312.08520507812</ele>
        <time>2018-12-29T15:28:02Z</time>
      </trkpt>
      <trkpt lat="43.28258" lon="5.63657">
        <ele>308.23986816406</ele>
        <time>2018-12-29T15:28:12Z</time>
      </trkpt>
      <trkpt lat="43.28249" lon="5.63641">
        <ele>306.31726074219</ele>
        <time>2018-12-29T15:28:27Z</time>
      </trkpt>
      <trkpt lat="43.28251" lon="5.63629">
        <ele>303.91394042969</ele>
        <time>2018-12-29T15:28:46Z</time>
      </trkpt>
      <trkpt lat="43.28248" lon="5.63614">
        <ele>303.43322753906</ele>
        <time>2018-12-29T15:29:01Z</time>
      </trkpt>
      <trkpt lat="43.28245" lon="5.63605">
        <ele>303.43322753906</ele>
        <time>2018-12-29T15:29:09Z</time>
      </trkpt>
      <trkpt lat="43.28233" lon="5.63578">
        <ele>301.02990722656</ele>
        <time>2018-12-29T15:29:29Z</time>
      </trkpt>
      <trkpt lat="43.28221" lon="5.63555">
        <ele>299.10729980469</ele>
        <time>2018-12-29T15:29:49Z</time>
      </trkpt>
      <trkpt lat="43.28213" lon="5.63541">
        <ele>296.7041015625</ele>
        <time>2018-12-29T15:30:00Z</time>
      </trkpt>
      <trkpt lat="43.28209" lon="5.63532">
        <ele>297.18469238281</ele>
        <time>2018-12-29T15:30:13Z</time>
      </trkpt>
      <trkpt lat="43.28194" lon="5.63506">
        <ele>292.85876464844</ele>
        <time>2018-12-29T15:30:40Z</time>
      </trkpt>
      <trkpt lat="43.28193" lon="5.63504">
        <ele>293.82006835938</ele>
        <time>2018-12-29T15:30:42Z</time>
      </trkpt>
      <trkpt lat="43.28186" lon="5.63497">
        <ele>293.82006835938</ele>
        <time>2018-12-29T15:30:51Z</time>
      </trkpt>
      <trkpt lat="43.28182" lon="5.63493">
        <ele>292.37817382812</ele>
        <time>2018-12-29T15:30:58Z</time>
      </trkpt>
      <trkpt lat="43.28179" lon="5.63491">
        <ele>291.8974609375</ele>
        <time>2018-12-29T15:31:00Z</time>
      </trkpt>
      <trkpt lat="43.28172" lon="5.63485">
        <ele>291.41674804688</ele>
        <time>2018-12-29T15:31:07Z</time>
      </trkpt>
      <trkpt lat="43.28165" lon="5.63488">
        <ele>293.82006835938</ele>
        <time>2018-12-29T15:31:20Z</time>
      </trkpt>
      <trkpt lat="43.2816" lon="5.6349">
        <ele>294.78137207031</ele>
        <time>2018-12-29T15:31:29Z</time>
      </trkpt>
      <trkpt lat="43.28152" lon="5.63491">
        <ele>292.85876464844</ele>
        <time>2018-12-29T15:31:38Z</time>
      </trkpt>
      <trkpt lat="43.2815" lon="5.63491">
        <ele>290.93615722656</ele>
        <time>2018-12-29T15:31:42Z</time>
      </trkpt>
      <trkpt lat="43.28145" lon="5.63491">
        <ele>290.45556640625</ele>
        <time>2018-12-29T15:31:49Z</time>
      </trkpt>
      <trkpt lat="43.28141" lon="5.63494">
        <ele>290.93615722656</ele>
        <time>2018-12-29T15:31:52Z</time>
      </trkpt>
      <trkpt lat="43.28139" lon="5.63506">
        <ele>290.45556640625</ele>
        <time>2018-12-29T15:31:56Z</time>
      </trkpt>
      <trkpt lat="43.28139" lon="5.63541">
        <ele>293.82006835938</ele>
        <time>2018-12-29T15:32:17Z</time>
      </trkpt>
      <trkpt lat="43.28139" lon="5.63548">
        <ele>295.26196289062</ele>
        <time>2018-12-29T15:32:20Z</time>
      </trkpt>
      <trkpt lat="43.28143" lon="5.63574">
        <ele>300.54931640625</ele>
        <time>2018-12-29T15:32:34Z</time>
      </trkpt>
      <trkpt lat="43.28138" lon="5.63598">
        <ele>307.27856445312</ele>
        <time>2018-12-29T15:32:48Z</time>
      </trkpt>
      <trkpt lat="43.28135" lon="5.6361">
        <ele>308.72045898438</ele>
        <time>2018-12-29T15:32:54Z</time>
      </trkpt>
      <trkpt lat="43.28126" lon="5.63622">
        <ele>310.64306640625</ele>
        <time>2018-12-29T15:33:01Z</time>
      </trkpt>
      <trkpt lat="43.28129" lon="5.63633">
        <ele>313.52722167969</ele>
        <time>2018-12-29T15:33:12Z</time>
      </trkpt>
      <trkpt lat="43.28128" lon="5.63634">
        <ele>313.04650878906</ele>
        <time>2018-12-29T15:33:14Z</time>
      </trkpt>
      <trkpt lat="43.28123" lon="5.63633">
        <ele>312.56579589844</ele>
        <time>2018-12-29T15:33:18Z</time>
      </trkpt>
      <trkpt lat="43.28115" lon="5.63642">
        <ele>302.47192382812</ele>
        <time>2018-12-29T15:33:37Z</time>
      </trkpt>
      <trkpt lat="43.28116" lon="5.63647">
        <ele>300.54931640625</ele>
        <time>2018-12-29T15:33:51Z</time>
      </trkpt>
      <trkpt lat="43.281" lon="5.63662">
        <ele>289.01354980469</ele>
        <time>2018-12-29T15:34:08Z</time>
      </trkpt>
      <trkpt lat="43.2809" lon="5.63664">
        <ele>287.57141113281</ele>
        <time>2018-12-29T15:34:17Z</time>
      </trkpt>
      <trkpt lat="43.28084" lon="5.63664">
        <ele>287.0908203125</ele>
        <time>2018-12-29T15:34:22Z</time>
      </trkpt>
      <trkpt lat="43.28063" lon="5.63677">
        <ele>284.20690917969</ele>
        <time>2018-12-29T15:34:41Z</time>
      </trkpt>
      <trkpt lat="43.28057" lon="5.63693">
        <ele>263.05786132812</ele>
        <time>2018-12-29T15:35:00Z</time>
      </trkpt>
      <trkpt lat="43.28042" lon="5.63711">
        <ele>248.15759277344</ele>
        <time>2018-12-29T15:35:22Z</time>
      </trkpt>
      <trkpt lat="43.28038" lon="5.63722">
        <ele>244.31225585938</ele>
        <time>2018-12-29T15:35:40Z</time>
      </trkpt>
      <trkpt lat="43.28031" lon="5.63724">
        <ele>241.90893554688</ele>
        <time>2018-12-29T15:35:49Z</time>
      </trkpt>
      <trkpt lat="43.28024" lon="5.63729">
        <ele>239.50549316406</ele>
        <time>2018-12-29T15:35:56Z</time>
      </trkpt>
      <trkpt lat="43.28022" lon="5.63728">
        <ele>239.50549316406</ele>
        <time>2018-12-29T15:35:58Z</time>
      </trkpt>
      <trkpt lat="43.28018" lon="5.63728">
        <ele>238.54431152344</ele>
        <time>2018-12-29T15:36:01Z</time>
      </trkpt>
      <trkpt lat="43.2801" lon="5.63731">
        <ele>236.14099121094</ele>
        <time>2018-12-29T15:36:08Z</time>
      </trkpt>
      <trkpt lat="43.28001" lon="5.63732">
        <ele>235.66027832031</ele>
        <time>2018-12-29T15:36:16Z</time>
      </trkpt>
      <trkpt lat="43.27986" lon="5.63738">
        <ele>234.69909667969</ele>
        <time>2018-12-29T15:36:32Z</time>
      </trkpt>
      <trkpt lat="43.27963" lon="5.63738">
        <ele>232.77648925781</ele>
        <time>2018-12-29T15:36:56Z</time>
      </trkpt>
      <trkpt lat="43.27946" lon="5.63739">
        <ele>229.89233398438</ele>
        <time>2018-12-29T15:37:12Z</time>
      </trkpt>
      <trkpt lat="43.2794" lon="5.63735">
        <ele>229.89233398438</ele>
        <time>2018-12-29T15:37:17Z</time>
      </trkpt>
      <trkpt lat="43.27937" lon="5.63735">
        <ele>229.89233398438</ele>
        <time>2018-12-29T15:37:20Z</time>
      </trkpt>
      <trkpt lat="43.27926" lon="5.63737">
        <ele>226.52783203125</ele>
        <time>2018-12-29T15:37:34Z</time>
      </trkpt>
      <trkpt lat="43.27913" lon="5.63748">
        <ele>222.20178222656</ele>
        <time>2018-12-29T15:37:53Z</time>
      </trkpt>
      <trkpt lat="43.27901" lon="5.63764">
        <ele>219.79858398438</ele>
        <time>2018-12-29T15:38:11Z</time>
      </trkpt>
      <trkpt lat="43.27894" lon="5.63776">
        <ele>220.75988769531</ele>
        <time>2018-12-29T15:38:25Z</time>
      </trkpt>
      <trkpt lat="43.27886" lon="5.63793">
        <ele>220.75988769531</ele>
        <time>2018-12-29T15:38:40Z</time>
      </trkpt>
      <trkpt lat="43.27875" lon="5.63825">
        <ele>222.68249511719</ele>
        <time>2018-12-29T15:39:05Z</time>
      </trkpt>
      <trkpt lat="43.27875" lon="5.63833">
        <ele>222.20178222656</ele>
        <time>2018-12-29T15:39:09Z</time>
      </trkpt>
      <trkpt lat="43.27872" lon="5.63847">
        <ele>219.79858398438</ele>
        <time>2018-12-29T15:39:22Z</time>
      </trkpt>
      <trkpt lat="43.27873" lon="5.63853">
        <ele>219.31799316406</ele>
        <time>2018-12-29T15:39:26Z</time>
      </trkpt>
      <trkpt lat="43.27867" lon="5.63867">
        <ele>217.8759765625</ele>
        <time>2018-12-29T15:39:40Z</time>
      </trkpt>
      <trkpt lat="43.27861" lon="5.63865">
        <ele>215.95324707031</ele>
        <time>2018-12-29T15:39:53Z</time>
      </trkpt>
      <trkpt lat="43.2786" lon="5.63859">
        <ele>215.47265625</ele>
        <time>2018-12-29T15:40:00Z</time>
      </trkpt>
      <trkpt lat="43.27857" lon="5.63855">
        <ele>215.47265625</ele>
        <time>2018-12-29T15:40:03Z</time>
      </trkpt>
      <trkpt lat="43.27853" lon="5.63842">
        <ele>215.95324707031</ele>
        <time>2018-12-29T15:40:11Z</time>
      </trkpt>
      <trkpt lat="43.27845" lon="5.63823">
        <ele>217.39538574219</ele>
        <time>2018-12-29T15:40:24Z</time>
      </trkpt>
      <trkpt lat="43.27842" lon="5.63805">
        <ele>221.24060058594</ele>
        <time>2018-12-29T15:40:36Z</time>
      </trkpt>
      <trkpt lat="43.27835" lon="5.63792">
        <ele>224.12451171875</ele>
        <time>2018-12-29T15:40:47Z</time>
      </trkpt>
      <trkpt lat="43.27834" lon="5.63787">
        <ele>224.12451171875</ele>
        <time>2018-12-29T15:40:49Z</time>
      </trkpt>
      <trkpt lat="43.27831" lon="5.63776">
        <ele>221.72119140625</ele>
        <time>2018-12-29T15:41:03Z</time>
      </trkpt>
      <trkpt lat="43.27829" lon="5.63763">
        <ele>219.31799316406</ele>
        <time>2018-12-29T15:41:21Z</time>
      </trkpt>
      <trkpt lat="43.27826" lon="5.63742">
        <ele>215.95324707031</ele>
        <time>2018-12-29T15:41:34Z</time>
      </trkpt>
      <trkpt lat="43.27821" lon="5.6373">
        <ele>212.10803222656</ele>
        <time>2018-12-29T15:41:50Z</time>
      </trkpt>
      <trkpt lat="43.27819" lon="5.63737">
        <ele>208.74340820312</ele>
        <time>2018-12-29T15:42:04Z</time>
      </trkpt>
      <trkpt lat="43.27817" lon="5.63741">
        <ele>206.82067871094</ele>
        <time>2018-12-29T15:42:09Z</time>
      </trkpt>
      <trkpt lat="43.27807" lon="5.63762">
        <ele>205.37878417969</ele>
        <time>2018-12-29T15:42:28Z</time>
      </trkpt>
      <trkpt lat="43.27803" lon="5.6377">
        <ele>206.34008789062</ele>
        <time>2018-12-29T15:42:34Z</time>
      </trkpt>
      <trkpt lat="43.27798" lon="5.63788">
        <ele>207.30139160156</ele>
        <time>2018-12-29T15:42:48Z</time>
      </trkpt>
      <trkpt lat="43.27796" lon="5.63813">
        <ele>211.14672851562</ele>
        <time>2018-12-29T15:43:05Z</time>
      </trkpt>
      <trkpt lat="43.27791" lon="5.6383">
        <ele>214.99194335938</ele>
        <time>2018-12-29T15:43:19Z</time>
      </trkpt>
      <trkpt lat="43.27787" lon="5.63837">
        <ele>216.43395996094</ele>
        <time>2018-12-29T15:43:24Z</time>
      </trkpt>
      <trkpt lat="43.27777" lon="5.63851">
        <ele>218.83728027344</ele>
        <time>2018-12-29T15:43:42Z</time>
      </trkpt>
      <trkpt lat="43.27774" lon="5.63858">
        <ele>212.10803222656</ele>
        <time>2018-12-29T15:44:02Z</time>
      </trkpt>
      <trkpt lat="43.27775" lon="5.63861">
        <ele>212.10803222656</ele>
        <time>2018-12-29T15:44:06Z</time>
      </trkpt>
      <trkpt lat="43.27772" lon="5.63877">
        <ele>210.666015625</ele>
        <time>2018-12-29T15:44:17Z</time>
      </trkpt>
      <trkpt lat="43.27772" lon="5.6388">
        <ele>210.666015625</ele>
        <time>2018-12-29T15:44:19Z</time>
      </trkpt>
      <trkpt lat="43.27775" lon="5.63888">
        <ele>208.26281738281</ele>
        <time>2018-12-29T15:44:30Z</time>
      </trkpt>
      <trkpt lat="43.27777" lon="5.6389">
        <ele>207.78210449219</ele>
        <time>2018-12-29T15:44:33Z</time>
      </trkpt>
      <trkpt lat="43.2779" lon="5.63905">
        <ele>200.572265625</ele>
        <time>2018-12-29T15:44:49Z</time>
      </trkpt>
      <trkpt lat="43.27795" lon="5.63913">
        <ele>197.68823242188</ele>
        <time>2018-12-29T15:44:56Z</time>
      </trkpt>
      <trkpt lat="43.27798" lon="5.63919">
        <ele>196.24633789062</ele>
        <time>2018-12-29T15:45:00Z</time>
      </trkpt>
      <trkpt lat="43.278" lon="5.63946">
        <ele>192.40112304688</ele>
        <time>2018-12-29T15:45:16Z</time>
      </trkpt>
      <trkpt lat="43.27788" lon="5.6396">
        <ele>189.03637695312</ele>
        <time>2018-12-29T15:45:35Z</time>
      </trkpt>
      <trkpt lat="43.27781" lon="5.63958">
        <ele>188.07507324219</ele>
        <time>2018-12-29T15:45:40Z</time>
      </trkpt>
      <trkpt lat="43.27763" lon="5.63943">
        <ele>185.19116210938</ele>
        <time>2018-12-29T15:46:02Z</time>
      </trkpt>
      <trkpt lat="43.27753" lon="5.63932">
        <ele>181.82641601562</ele>
        <time>2018-12-29T15:46:19Z</time>
      </trkpt>
      <trkpt lat="43.27738" lon="5.63912">
        <ele>176.53930664062</ele>
        <time>2018-12-29T15:46:44Z</time>
      </trkpt>
      <trkpt lat="43.27733" lon="5.63906">
        <ele>171.25207519531</ele>
        <time>2018-12-29T15:47:02Z</time>
      </trkpt>
      <trkpt lat="43.27722" lon="5.63896">
        <ele>166.4453125</ele>
        <time>2018-12-29T15:47:19Z</time>
      </trkpt>
      <trkpt lat="43.2772" lon="5.63882">
        <ele>156.83215332031</ele>
        <time>2018-12-29T15:47:33Z</time>
      </trkpt>
      <trkpt lat="43.27718" lon="5.63879">
        <ele>154.90954589844</ele>
        <time>2018-12-29T15:47:36Z</time>
      </trkpt>
      <trkpt lat="43.27712" lon="5.6387">
        <ele>150.58361816406</ele>
        <time>2018-12-29T15:47:44Z</time>
      </trkpt>
      <trkpt lat="43.27713" lon="5.63863">
        <ele>146.73840332031</ele>
        <time>2018-12-29T15:47:48Z</time>
      </trkpt>
      <trkpt lat="43.27713" lon="5.63838">
        <ele>138.08654785156</ele>
        <time>2018-12-29T15:48:06Z</time>
      </trkpt>
      <trkpt lat="43.27704" lon="5.63814">
        <ele>134.72192382812</ele>
        <time>2018-12-29T15:48:22Z</time>
      </trkpt>
      <trkpt lat="43.27701" lon="5.63806">
        <ele>134.2412109375</ele>
        <time>2018-12-29T15:48:28Z</time>
      </trkpt>
      <trkpt lat="43.27699" lon="5.63798">
        <ele>133.76049804688</ele>
        <time>2018-12-29T15:48:32Z</time>
      </trkpt>
      <trkpt lat="43.27696" lon="5.63795">
        <ele>134.2412109375</ele>
        <time>2018-12-29T15:48:35Z</time>
      </trkpt>
      <trkpt lat="43.27695" lon="5.63791">
        <ele>134.72192382812</ele>
        <time>2018-12-29T15:48:38Z</time>
      </trkpt>
      <trkpt lat="43.2769" lon="5.63784">
        <ele>135.68310546875</ele>
        <time>2018-12-29T15:48:45Z</time>
      </trkpt>
      <trkpt lat="43.27687" lon="5.63779">
        <ele>136.16394042969</ele>
        <time>2018-12-29T15:48:49Z</time>
      </trkpt>
      <trkpt lat="43.27683" lon="5.63776">
        <ele>136.64465332031</ele>
        <time>2018-12-29T15:48:53Z</time>
      </trkpt>
      <trkpt lat="43.2768" lon="5.63765">
        <ele>134.72192382812</ele>
        <time>2018-12-29T15:49:02Z</time>
      </trkpt>
      <trkpt lat="43.27679" lon="5.63761">
        <ele>135.20251464844</ele>
        <time>2018-12-29T15:49:05Z</time>
      </trkpt>
      <trkpt lat="43.2768" lon="5.63748">
        <ele>134.72192382812</ele>
        <time>2018-12-29T15:49:16Z</time>
      </trkpt>
      <trkpt lat="43.27678" lon="5.63739">
        <ele>134.2412109375</ele>
        <time>2018-12-29T15:49:28Z</time>
      </trkpt>
      <trkpt lat="43.27678" lon="5.63731">
        <ele>133.76049804688</ele>
        <time>2018-12-29T15:49:37Z</time>
      </trkpt>
      <trkpt lat="43.27681" lon="5.6372">
        <ele>133.76049804688</ele>
        <time>2018-12-29T15:49:42Z</time>
      </trkpt>
      <trkpt lat="43.27684" lon="5.63713">
        <ele>134.2412109375</ele>
        <time>2018-12-29T15:49:47Z</time>
      </trkpt>
      <trkpt lat="43.27693" lon="5.63696">
        <ele>135.20251464844</ele>
        <time>2018-12-29T15:49:57Z</time>
      </trkpt>
      <trkpt lat="43.27709" lon="5.63686">
        <ele>134.72192382812</ele>
        <time>2018-12-29T15:50:10Z</time>
      </trkpt>
      <trkpt lat="43.27718" lon="5.6368">
        <ele>133.76049804688</ele>
        <time>2018-12-29T15:50:17Z</time>
      </trkpt>
      <trkpt lat="43.27727" lon="5.63669">
        <ele>132.79931640625</ele>
        <time>2018-12-29T15:50:27Z</time>
      </trkpt>
      <trkpt lat="43.2773" lon="5.63665">
        <ele>133.27990722656</ele>
        <time>2018-12-29T15:50:31Z</time>
      </trkpt>
      <trkpt lat="43.27736" lon="5.63658">
        <ele>133.27990722656</ele>
        <time>2018-12-29T15:50:36Z</time>
      </trkpt>
      <trkpt lat="43.27735" lon="5.63645">
        <ele>131.837890625</ele>
        <time>2018-12-29T15:50:44Z</time>
      </trkpt>
      <trkpt lat="43.27745" lon="5.6363">
        <ele>129.43469238281</ele>
        <time>2018-12-29T15:50:57Z</time>
      </trkpt>
      <trkpt lat="43.27748" lon="5.63626">
        <ele>129.43469238281</ele>
        <time>2018-12-29T15:51:00Z</time>
      </trkpt>
      <trkpt lat="43.27749" lon="5.63622">
        <ele>129.43469238281</ele>
        <time>2018-12-29T15:51:03Z</time>
      </trkpt>
      <trkpt lat="43.27753" lon="5.63597">
        <ele>127.99255371094</ele>
        <time>2018-12-29T15:51:19Z</time>
      </trkpt>
      <trkpt lat="43.27752" lon="5.63594">
        <ele>127.99255371094</ele>
        <time>2018-12-29T15:51:20Z</time>
      </trkpt>
      <trkpt lat="43.27748" lon="5.63571">
        <ele>125.10876464844</ele>
        <time>2018-12-29T15:51:33Z</time>
      </trkpt>
      <trkpt lat="43.27742" lon="5.63555">
        <ele>125.10876464844</ele>
        <time>2018-12-29T15:51:45Z</time>
      </trkpt>
      <trkpt lat="43.27739" lon="5.63527">
        <ele>125.10876464844</ele>
        <time>2018-12-29T15:52:09Z</time>
      </trkpt>
      <trkpt lat="43.27737" lon="5.63525">
        <ele>124.62805175781</ele>
        <time>2018-12-29T15:52:29Z</time>
      </trkpt>
      <trkpt lat="43.27734" lon="5.63518">
        <ele>124.14733886719</ele>
        <time>2018-12-29T15:52:35Z</time>
      </trkpt>
      <trkpt lat="43.27734" lon="5.63503">
        <ele>124.62805175781</ele>
        <time>2018-12-29T15:52:47Z</time>
      </trkpt>
      <trkpt lat="43.27733" lon="5.63501">
        <ele>124.62805175781</ele>
        <time>2018-12-29T15:52:48Z</time>
      </trkpt>
      <trkpt lat="43.27731" lon="5.63497">
        <ele>124.62805175781</ele>
        <time>2018-12-29T15:52:50Z</time>
      </trkpt>
      <trkpt lat="43.27721" lon="5.63477">
        <ele>123.66674804688</ele>
        <time>2018-12-29T15:53:04Z</time>
      </trkpt>
      <trkpt lat="43.27727" lon="5.63472">
        <ele>123.18615722656</ele>
        <time>2018-12-29T15:53:09Z</time>
      </trkpt>
      <trkpt lat="43.2773" lon="5.63471">
        <ele>122.70544433594</ele>
        <time>2018-12-29T15:53:11Z</time>
      </trkpt>
      <trkpt lat="43.27733" lon="5.63465">
        <ele>123.66674804688</ele>
        <time>2018-12-29T15:53:15Z</time>
      </trkpt>
      <trkpt lat="43.27736" lon="5.63463">
        <ele>123.18615722656</ele>
        <time>2018-12-29T15:53:17Z</time>
      </trkpt>
      <trkpt lat="43.27739" lon="5.63458">
        <ele>123.18615722656</ele>
        <time>2018-12-29T15:53:23Z</time>
      </trkpt>
      <trkpt lat="43.27747" lon="5.63452">
        <ele>125.58935546875</ele>
        <time>2018-12-29T15:53:34Z</time>
      </trkpt>
      <trkpt lat="43.27758" lon="5.63456">
        <ele>127.51196289062</ele>
        <time>2018-12-29T15:53:43Z</time>
      </trkpt>
      <trkpt lat="43.27772" lon="5.63451">
        <ele>130.39599609375</ele>
        <time>2018-12-29T15:54:03Z</time>
      </trkpt>
      <trkpt lat="43.27783" lon="5.63453">
        <ele>131.837890625</ele>
        <time>2018-12-29T15:54:13Z</time>
      </trkpt>
      <trkpt lat="43.27796" lon="5.63447">
        <ele>134.2412109375</ele>
        <time>2018-12-29T15:54:28Z</time>
      </trkpt>
      <trkpt lat="43.27813" lon="5.6345">
        <ele>135.68310546875</ele>
        <time>2018-12-29T15:54:43Z</time>
      </trkpt>
      <trkpt lat="43.27828" lon="5.63456">
        <ele>136.16394042969</ele>
        <time>2018-12-29T15:54:53Z</time>
      </trkpt>
      <trkpt lat="43.27839" lon="5.63451">
        <ele>138.08654785156</ele>
        <time>2018-12-29T15:55:08Z</time>
      </trkpt>
      <trkpt lat="43.27853" lon="5.63447">
        <ele>137.12524414062</ele>
        <time>2018-12-29T15:55:19Z</time>
      </trkpt>
      <trkpt lat="43.27873" lon="5.63443">
        <ele>135.68310546875</ele>
        <time>2018-12-29T15:55:42Z</time>
      </trkpt>
      <trkpt lat="43.27895" lon="5.63438">
        <ele>137.60583496094</ele>
        <time>2018-12-29T15:56:05Z</time>
      </trkpt>
      <trkpt lat="43.27914" lon="5.63429">
        <ele>140.00915527344</ele>
        <time>2018-12-29T15:56:24Z</time>
      </trkpt>
      <trkpt lat="43.27917" lon="5.63427">
        <ele>140.97045898438</ele>
        <time>2018-12-29T15:56:28Z</time>
      </trkpt>
      <trkpt lat="43.27931" lon="5.6341">
        <ele>142.41247558594</ele>
        <time>2018-12-29T15:56:44Z</time>
      </trkpt>
      <trkpt lat="43.27941" lon="5.63391">
        <ele>145.77709960938</ele>
        <time>2018-12-29T15:57:03Z</time>
      </trkpt>
      <trkpt lat="43.27949" lon="5.63374">
        <ele>146.2578125</ele>
        <time>2018-12-29T15:57:10Z</time>
      </trkpt>
      <trkpt lat="43.27951" lon="5.63362">
        <ele>146.2578125</ele>
        <time>2018-12-29T15:57:15Z</time>
      </trkpt>
      <trkpt lat="43.27951" lon="5.63355">
        <ele>146.73840332031</ele>
        <time>2018-12-29T15:57:19Z</time>
      </trkpt>
      <trkpt lat="43.27951" lon="5.63352">
        <ele>147.21899414062</ele>
        <time>2018-12-29T15:57:21Z</time>
      </trkpt>
      <trkpt lat="43.27952" lon="5.6335">
        <ele>146.73840332031</ele>
        <time>2018-12-29T15:57:23Z</time>
      </trkpt>
      <trkpt lat="43.27956" lon="5.63337">
        <ele>146.2578125</ele>
        <time>2018-12-29T15:57:37Z</time>
      </trkpt>
      <trkpt lat="43.27965" lon="5.63327">
        <ele>144.33520507812</ele>
        <time>2018-12-29T15:57:51Z</time>
      </trkpt>
      <trkpt lat="43.27971" lon="5.63316">
        <ele>140.97045898438</ele>
        <time>2018-12-29T15:58:01Z</time>
      </trkpt>
      <trkpt lat="43.27972" lon="5.63303">
        <ele>136.16394042969</ele>
        <time>2018-12-29T15:58:11Z</time>
      </trkpt>
      <trkpt lat="43.27972" lon="5.633">
        <ele>135.20251464844</ele>
        <time>2018-12-29T15:58:13Z</time>
      </trkpt>
      <trkpt lat="43.27977" lon="5.63284">
        <ele>135.68310546875</ele>
        <time>2018-12-29T15:58:21Z</time>
      </trkpt>
      <trkpt lat="43.27976" lon="5.63282">
        <ele>134.72192382812</ele>
        <time>2018-12-29T15:58:23Z</time>
      </trkpt>
      <trkpt lat="43.27978" lon="5.63279">
        <ele>134.72192382812</ele>
        <time>2018-12-29T15:58:26Z</time>
      </trkpt>
      <trkpt lat="43.27984" lon="5.63268">
        <ele>130.87670898438</ele>
        <time>2018-12-29T15:58:35Z</time>
      </trkpt>
      <trkpt lat="43.27987" lon="5.63258">
        <ele>128.47338867188</ele>
        <time>2018-12-29T15:58:42Z</time>
      </trkpt>
      <trkpt lat="43.27993" lon="5.63238">
        <ele>129.43469238281</ele>
        <time>2018-12-29T15:58:56Z</time>
      </trkpt>
      <trkpt lat="43.27994" lon="5.63228">
        <ele>128.9541015625</ele>
        <time>2018-12-29T15:59:02Z</time>
      </trkpt>
      <trkpt lat="43.27999" lon="5.63204">
        <ele>128.9541015625</ele>
        <time>2018-12-29T15:59:19Z</time>
      </trkpt>
      <trkpt lat="43.28" lon="5.63189">
        <ele>128.47338867188</ele>
        <time>2018-12-29T15:59:29Z</time>
      </trkpt>
      <trkpt lat="43.28005" lon="5.6318">
        <ele>128.9541015625</ele>
        <time>2018-12-29T15:59:34Z</time>
      </trkpt>
      <trkpt lat="43.28006" lon="5.63172">
        <ele>128.47338867188</ele>
        <time>2018-12-29T15:59:39Z</time>
      </trkpt>
      <trkpt lat="43.28005" lon="5.63168">
        <ele>127.51196289062</ele>
        <time>2018-12-29T15:59:45Z</time>
      </trkpt>
      <trkpt lat="43.2801" lon="5.63151">
        <ele>127.03137207031</ele>
        <time>2018-12-29T15:59:59Z</time>
      </trkpt>
      <trkpt lat="43.28017" lon="5.63139">
        <ele>125.10876464844</ele>
        <time>2018-12-29T16:00:09Z</time>
      </trkpt>
      <trkpt lat="43.28019" lon="5.63129">
        <ele>124.62805175781</ele>
        <time>2018-12-29T16:00:18Z</time>
      </trkpt>
      <trkpt lat="43.28021" lon="5.63109">
        <ele>124.62805175781</ele>
        <time>2018-12-29T16:00:31Z</time>
      </trkpt>
      <trkpt lat="43.28018" lon="5.63095">
        <ele>125.58935546875</ele>
        <time>2018-12-29T16:00:42Z</time>
      </trkpt>
      <trkpt lat="43.28015" lon="5.63061">
        <ele>128.47338867188</ele>
        <time>2018-12-29T16:01:00Z</time>
      </trkpt>
      <trkpt lat="43.28016" lon="5.6304">
        <ele>127.03137207031</ele>
        <time>2018-12-29T16:01:15Z</time>
      </trkpt>
      <trkpt lat="43.28022" lon="5.6302">
        <ele>127.51196289062</ele>
        <time>2018-12-29T16:01:28Z</time>
      </trkpt>
      <trkpt lat="43.28021" lon="5.62997">
        <ele>127.51196289062</ele>
        <time>2018-12-29T16:01:40Z</time>
      </trkpt>
      <trkpt lat="43.28023" lon="5.6299">
        <ele>128.47338867188</ele>
        <time>2018-12-29T16:01:46Z</time>
      </trkpt>
      <trkpt lat="43.28025" lon="5.62967">
        <ele>131.35729980469</ele>
        <time>2018-12-29T16:02:04Z</time>
      </trkpt>
      <trkpt lat="43.28026" lon="5.62939">
        <ele>134.2412109375</ele>
        <time>2018-12-29T16:02:26Z</time>
      </trkpt>
      <trkpt lat="43.28023" lon="5.62926">
        <ele>135.20251464844</ele>
        <time>2018-12-29T16:02:36Z</time>
      </trkpt>
      <trkpt lat="43.2803" lon="5.62912">
        <ele>135.68310546875</ele>
        <time>2018-12-29T16:02:45Z</time>
      </trkpt>
      <trkpt lat="43.28041" lon="5.62899">
        <ele>136.64465332031</ele>
        <time>2018-12-29T16:02:55Z</time>
      </trkpt>
      <trkpt lat="43.28039" lon="5.62887">
        <ele>137.12524414062</ele>
        <time>2018-12-29T16:03:01Z</time>
      </trkpt>
      <trkpt lat="43.28044" lon="5.6288">
        <ele>137.12524414062</ele>
        <time>2018-12-29T16:03:08Z</time>
      </trkpt>
      <trkpt lat="43.2805" lon="5.6285">
        <ele>134.72192382812</ele>
        <time>2018-12-29T16:03:23Z</time>
      </trkpt>
      <trkpt lat="43.28055" lon="5.6283">
        <ele>130.87670898438</ele>
        <time>2018-12-29T16:03:37Z</time>
      </trkpt>
      <trkpt lat="43.28059" lon="5.62816">
        <ele>128.9541015625</ele>
        <time>2018-12-29T16:03:46Z</time>
      </trkpt>
      <trkpt lat="43.28075" lon="5.62787">
        <ele>115.97619628906</ele>
        <time>2018-12-29T16:04:06Z</time>
      </trkpt>
      <trkpt lat="43.28084" lon="5.62768">
        <ele>112.61157226562</ele>
        <time>2018-12-29T16:04:20Z</time>
      </trkpt>
      <trkpt lat="43.28101" lon="5.62749">
        <ele>110.68884277344</ele>
        <time>2018-12-29T16:04:40Z</time>
      </trkpt>
      <trkpt lat="43.28117" lon="5.62731">
        <ele>107.80505371094</ele>
        <time>2018-12-29T16:04:57Z</time>
      </trkpt>
      <trkpt lat="43.28132" lon="5.62724">
        <ele>106.36303710938</ele>
        <time>2018-12-29T16:05:10Z</time>
      </trkpt>
      <trkpt lat="43.2815" lon="5.62714">
        <ele>104.4404296875</ele>
        <time>2018-12-29T16:05:29Z</time>
      </trkpt>
      <trkpt lat="43.28163" lon="5.62708">
        <ele>102.99829101562</ele>
        <time>2018-12-29T16:05:41Z</time>
      </trkpt>
      <trkpt lat="43.28188" lon="5.62698">
        <ele>102.037109375</ele>
        <time>2018-12-29T16:06:01Z</time>
      </trkpt>
      <trkpt lat="43.28209" lon="5.62686">
        <ele>106.36303710938</ele>
        <time>2018-12-29T16:06:21Z</time>
      </trkpt>
      <trkpt lat="43.28226" lon="5.62679">
        <ele>106.84362792969</ele>
        <time>2018-12-29T16:06:37Z</time>
      </trkpt>
      <trkpt lat="43.2823" lon="5.62678">
        <ele>107.32434082031</ele>
        <time>2018-12-29T16:06:41Z</time>
      </trkpt>
      <trkpt lat="43.28249" lon="5.6267">
        <ele>107.80505371094</ele>
        <time>2018-12-29T16:06:58Z</time>
      </trkpt>
      <trkpt lat="43.28267" lon="5.62662">
        <ele>105.88244628906</ele>
        <time>2018-12-29T16:07:16Z</time>
      </trkpt>
      <trkpt lat="43.28291" lon="5.62649">
        <ele>103.95971679688</ele>
        <time>2018-12-29T16:07:35Z</time>
      </trkpt>
      <trkpt lat="43.28307" lon="5.62643">
        <ele>105.40173339844</ele>
        <time>2018-12-29T16:07:48Z</time>
      </trkpt>
      <trkpt lat="43.28326" lon="5.62628">
        <ele>106.84362792969</ele>
        <time>2018-12-29T16:08:09Z</time>
      </trkpt>
      <trkpt lat="43.28346" lon="5.62619">
        <ele>106.84362792969</ele>
        <time>2018-12-29T16:08:33Z</time>
      </trkpt>
      <trkpt lat="43.28344" lon="5.62621">
        <ele>106.36303710938</ele>
        <time>2018-12-29T16:11:03Z</time>
      </trkpt>
    </trkseg>
  </trk>
</gpx>